Time,TemperatureF,DewpointF,PressureIn,WindDirection,WindDirectionDegrees,WindSpeedMPH,WindSpeedGustMPH,Humidity,HourlyPrecipIn,Conditions,Clouds,dailyrainin,SoftwareType,DateUTC
2013-01-28 06:41:00,28.4,5.4,30.57,South,180,2.4,2.4,37,0.00,CLR,,0.00,WeatherDisplay:10.37,2013-01-28 11:41:00,
2013-01-28 06:42:00,28.4,5.4,30.57,South,180,2.3,2.4,37,0.00,CLR,,0.00,WeatherDisplay:10.37,2013-01-28 11:42:00,
2013-01-28 06:46:00,28.4,5.4,30.57,South,180,2.3,2.4,37,0.00,CLR,,0.00,WeatherDisplay:10.37,2013-01-28 11:46:00,
2013-01-28 06:47:00,28.4,5.4,30.57,South,180,2.3,2.4,37,0.00,CLR,,0.00,WeatherDisplay:10.37,2013-01-28 11:47:00,
2013-01-28 06:52:00,28.4,5.4,30.57,South,180,2.3,2.4,37,0.00,CLR,,0.00,WeatherDisplay:10.37,2013-01-28 11:52:00,
2013-01-28 06:57:00,28.4,5.4,30.57,South,180,2.3,2.4,37,0.00,CLR,,0.00,WeatherDisplay:10.37,2013-01-28 11:57:00,
2013-01-28 07:02:00,22.6,8.9,30.51,NNW,338,2.3,0.0,55,0.00,CLR,,0.00,WeatherDisplay:10.37,2013-01-28 12:02:00,
2013-01-28 07:07:00,22.6,8.9,30.51,NNW,338,0.0,0.0,55,0.00,CLR,,0.00,WeatherDisplay:10.37,2013-01-28 12:07:00,
2013-01-28 07:12:00,22.6,8.9,30.51,NNW,338,0.0,0.0,55,0.00,CLR,,0.00,WeatherDisplay:10.37,2013-01-28 12:12:00,
2013-01-28 07:13:00,22.6,8.9,30.51,NNW,338,0.0,0.0,55,0.00,CLR,,0.00,WeatherDisplay:10.37,2013-01-28 12:13:00,
2013-01-28 07:17:00,22.6,8.9,30.51,NNW,338,0.0,0.0,55,0.00,CLR,,0.00,WeatherDisplay:10.37,2013-01-28 12:17:00,
2013-01-28 07:18:00,22.6,8.9,30.51,NNW,338,0.0,0.0,55,0.00,CLR,,0.00,WeatherDisplay:10.37,2013-01-28 12:18:00,
2013-01-28 07:22:00,22.6,8.9,30.51,NNW,338,0.0,0.0,55,0.00,CLR,,0.00,WeatherDisplay:10.37,2013-01-28 12:22:00,
2013-01-28 07:23:00,22.6,8.9,30.51,NNW,338,0.0,0.0,55,0.00,CLR,,0.00,WeatherDisplay:10.37,2013-01-28 12:23:00,
2013-01-28 07:27:00,22.6,8.9,30.51,NNW,338,0.0,0.0,55,0.00,CLR,,0.00,WeatherDisplay:10.37,2013-01-28 12:27:00,
2013-01-28 07:28:00,22.6,8.9,30.51,NNW,338,0.0,0.0,55,0.00,CLR,,0.00,WeatherDisplay:10.37,2013-01-28 12:28:00,
2013-01-28 07:32:00,23.4,9.6,30.52,East,90,0.0,0.0,55,0.00,CLR,,0.00,WeatherDisplay:10.37,2013-01-28 12:32:00,
2013-01-28 07:33:00,23.4,9.6,30.52,East,90,0.0,0.0,55,0.00,CLR,,0.00,WeatherDisplay:10.37,2013-01-28 12:33:00,
2013-01-28 07:34:00,23.4,9.6,30.52,East,90,0.0,0.0,55,0.00,CLR,,0.00,WeatherDisplay:10.37,2013-01-28 12:34:00,
2013-01-28 07:38:00,23.4,9.6,30.52,East,90,0.0,0.0,55,0.00,CLR,,0.00,WeatherDisplay:10.37,2013-01-28 12:38:00,
2013-01-28 07:39:00,23.4,9.6,30.52,East,90,0.0,0.0,55,0.00,CLR,,0.00,WeatherDisplay:10.37,2013-01-28 12:39:00,
2013-01-28 07:43:00,23.4,9.6,30.52,East,90,0.0,0.0,55,0.00,CLR,,0.00,WeatherDisplay:10.37,2013-01-28 12:43:00,
2013-01-28 07:44:00,23.4,9.6,30.52,East,90,0.0,0.0,55,0.00,CLR,,0.00,WeatherDisplay:10.37,2013-01-28 12:44:00,
2013-01-28 07:48:00,23.4,9.6,30.52,East,90,0.0,0.0,55,0.00,CLR,,0.00,WeatherDisplay:10.37,2013-01-28 12:48:00,
2013-01-28 07:49:00,23.4,9.6,30.52,East,90,0.0,0.0,55,0.00,CLR,,0.00,WeatherDisplay:10.37,2013-01-28 12:49:00,
2013-01-28 07:53:00,23.4,9.6,30.52,East,90,0.0,0.0,55,0.00,CLR,,0.00,WeatherDisplay:10.37,2013-01-28 12:53:00,
2013-01-28 07:54:00,23.4,9.6,30.52,East,90,0.0,0.0,55,0.00,CLR,,0.00,WeatherDisplay:10.37,2013-01-28 12:54:00,
2013-01-28 07:58:00,23.4,9.6,30.52,East,90,0.0,0.0,55,0.00,CLR,,0.00,WeatherDisplay:10.37,2013-01-28 12:58:00,
2013-01-28 07:59:00,23.4,9.6,30.52,East,90,0.0,0.0,55,0.00,CLR,,0.00,WeatherDisplay:10.37,2013-01-28 12:59:00,
2013-01-28 08:03:00,24.1,10.6,30.51,ENE,68,0.0,0.0,56,0.00,CLR,,0.00,WeatherDisplay:10.37,2013-01-28 13:03:00,
2013-01-28 08:04:00,24.1,10.6,30.51,ENE,68,0.0,0.0,56,0.00,CLR,,0.00,WeatherDisplay:10.37,2013-01-28 13:04:00,
2013-01-28 08:05:00,24.1,10.6,30.51,ENE,68,0.0,0.0,56,0.00,CLR,,0.00,WeatherDisplay:10.37,2013-01-28 13:05:00,
2013-01-28 08:08:00,24.1,10.6,30.51,ENE,68,0.0,0.0,56,0.00,CLR,,0.00,WeatherDisplay:10.37,2013-01-28 13:08:00,
2013-01-28 08:09:00,24.1,10.6,30.51,ENE,68,0.0,0.0,56,0.00,CLR,,0.00,WeatherDisplay:10.37,2013-01-28 13:09:00,
2013-01-28 08:10:00,24.1,10.6,30.51,ENE,68,0.0,0.0,56,0.00,CLR,,0.00,WeatherDisplay:10.37,2013-01-28 13:10:00,
2013-01-28 08:14:00,24.1,10.6,30.51,ENE,68,0.0,0.0,56,0.00,CLR,,0.00,WeatherDisplay:10.37,2013-01-28 13:14:00,
2013-01-28 08:15:00,24.1,10.6,30.51,ENE,68,0.0,0.0,56,0.00,CLR,,0.00,WeatherDisplay:10.37,2013-01-28 13:15:00,
2013-01-28 08:19:00,24.1,10.6,30.51,ENE,68,0.0,0.0,56,0.00,CLR,,0.00,WeatherDisplay:10.37,2013-01-28 13:19:00,
2013-01-28 08:20:00,24.1,10.6,30.51,ENE,68,0.0,0.0,56,0.00,CLR,,0.00,WeatherDisplay:10.37,2013-01-28 13:20:00,
2013-01-28 08:24:00,24.1,10.6,30.51,ENE,68,0.0,0.0,56,0.00,CLR,,0.00,WeatherDisplay:10.37,2013-01-28 13:24:00,
2013-01-28 08:25:00,24.1,10.6,30.51,ENE,68,0.0,0.0,56,0.00,CLR,,0.00,WeatherDisplay:10.37,2013-01-28 13:25:00,
2013-01-28 08:26:00,24.1,10.6,30.51,ENE,68,0.0,0.0,56,0.00,CLR,,0.00,WeatherDisplay:10.37,2013-01-28 13:26:00,
2013-01-28 08:29:00,24.1,10.6,30.51,ENE,68,0.0,0.0,56,0.00,CLR,,0.00,WeatherDisplay:10.37,2013-01-28 13:29:00,
2013-01-28 08:30:00,24.1,10.6,30.51,ENE,68,0.0,0.0,56,0.00,CLR,,0.00,WeatherDisplay:10.37,2013-01-28 13:30:00,
2013-01-28 08:31:00,25.3,11.4,30.51,ENE,68,0.0,0.0,55,0.00,CLR,,0.00,WeatherDisplay:10.37,2013-01-28 13:31:00,
2013-01-28 08:34:00,25.3,11.4,30.51,ENE,68,0.0,0.0,55,0.00,CLR,,0.00,WeatherDisplay:10.37,2013-01-28 13:34:00,
2013-01-28 08:35:00,25.3,11.4,30.51,ENE,68,0.0,0.0,55,0.00,CLR,,0.00,WeatherDisplay:10.37,2013-01-28 13:35:00,
2013-01-28 08:36:00,25.3,11.4,30.51,ENE,68,0.0,0.0,55,0.00,CLR,,0.00,WeatherDisplay:10.37,2013-01-28 13:36:00,
2013-01-28 08:39:00,25.3,11.4,30.51,ENE,68,0.0,0.0,55,0.00,CLR,,0.00,WeatherDisplay:10.37,2013-01-28 13:39:00,
2013-01-28 08:40:00,25.3,11.4,30.51,ENE,68,0.0,0.0,55,0.00,CLR,,0.00,WeatherDisplay:10.37,2013-01-28 13:40:00,
2013-01-28 08:41:00,25.3,11.4,30.51,ENE,68,0.0,0.0,55,0.00,CLR,,0.00,WeatherDisplay:10.37,2013-01-28 13:41:00,
2013-01-28 08:44:00,25.3,11.4,30.51,ENE,68,0.0,0.0,55,0.00,CLR,,0.00,WeatherDisplay:10.37,2013-01-28 13:44:00,
2013-01-28 08:45:00,25.3,11.4,30.51,ENE,68,0.0,0.0,55,0.00,CLR,,0.00,WeatherDisplay:10.37,2013-01-28 13:45:00,
2013-01-28 08:46:00,25.3,11.4,30.51,ENE,68,0.0,0.0,55,0.00,CLR,,0.00,WeatherDisplay:10.37,2013-01-28 13:46:00,
2013-01-28 08:49:00,25.3,11.4,30.51,ENE,68,0.0,0.0,55,0.00,CLR,,0.00,WeatherDisplay:10.37,2013-01-28 13:49:00,
2013-01-28 08:50:00,25.3,11.4,30.51,ENE,68,0.0,0.0,55,0.00,CLR,,0.00,WeatherDisplay:10.37,2013-01-28 13:50:00,
2013-01-28 08:51:00,25.3,11.4,30.51,ENE,68,0.0,0.0,55,0.00,CLR,,0.00,WeatherDisplay:10.37,2013-01-28 13:51:00,
2013-01-28 08:54:00,25.3,11.4,30.51,ENE,68,0.0,0.0,55,0.00,CLR,,0.00,WeatherDisplay:10.37,2013-01-28 13:54:00,
2013-01-28 08:55:00,25.3,11.4,30.51,ENE,68,0.0,0.0,55,0.00,CLR,,0.00,WeatherDisplay:10.37,2013-01-28 13:55:00,
2013-01-28 08:56:00,25.3,11.4,30.51,ENE,68,0.0,0.0,55,0.00,CLR,,0.00,WeatherDisplay:10.37,2013-01-28 13:56:00,
2013-01-28 08:59:00,25.3,11.4,30.51,ENE,68,0.0,0.0,55,0.00,CLR,,0.00,WeatherDisplay:10.37,2013-01-28 13:59:00,
2013-01-28 09:00:00,26.6,12.6,30.49,NNW,338,0.0,0.0,55,0.00,CLR,,0.00,WeatherDisplay:10.37,2013-01-28 14:00:00,
2013-01-28 09:01:00,26.6,12.6,30.49,NNW,338,0.0,0.0,55,0.00,CLR,,0.00,WeatherDisplay:10.37,2013-01-28 14:01:00,
2013-01-28 09:04:00,26.6,12.6,30.49,NNW,338,0.0,0.0,55,0.00,CLR,,0.00,WeatherDisplay:10.37,2013-01-28 14:04:00,
2013-01-28 09:06:00,26.6,12.6,30.49,NNW,338,0.0,0.0,55,0.00,CLR,,0.00,WeatherDisplay:10.37,2013-01-28 14:06:00,
2013-01-28 09:09:00,26.6,12.6,30.49,NNW,338,0.0,0.0,55,0.00,CLR,,0.00,WeatherDisplay:10.37,2013-01-28 14:09:00,
2013-01-28 09:11:00,26.6,12.6,30.49,NNW,338,0.0,0.0,55,0.00,CLR,,0.00,WeatherDisplay:10.37,2013-01-28 14:11:00,
2013-01-28 09:12:00,26.6,12.6,30.49,NNW,338,0.0,0.0,55,0.00,CLR,,0.00,WeatherDisplay:10.37,2013-01-28 14:12:00,
2013-01-28 09:14:00,26.6,12.6,30.49,NNW,338,0.0,0.0,55,0.00,CLR,,0.00,WeatherDisplay:10.37,2013-01-28 14:14:00,
2013-01-28 09:16:00,26.6,12.6,30.49,NNW,338,0.0,0.0,55,0.00,CLR,,0.00,WeatherDisplay:10.37,2013-01-28 14:16:00,
2013-01-28 09:17:00,26.6,12.6,30.49,NNW,338,0.0,0.0,55,0.00,CLR,,0.00,WeatherDisplay:10.37,2013-01-28 14:17:00,
2013-01-28 09:19:00,26.6,12.6,30.49,NNW,338,0.0,0.0,55,0.00,CLR,,0.00,WeatherDisplay:10.37,2013-01-28 14:19:00,
2013-01-28 09:21:00,26.6,12.6,30.49,NNW,338,0.0,0.0,55,0.00,CLR,,0.00,WeatherDisplay:10.37,2013-01-28 14:21:00,
2013-01-28 09:22:00,26.6,12.6,30.49,NNW,338,0.0,0.0,55,0.00,CLR,,0.00,WeatherDisplay:10.37,2013-01-28 14:22:00,
2013-01-28 09:24:00,26.6,12.6,30.49,NNW,338,0.0,0.0,55,0.00,CLR,,0.00,WeatherDisplay:10.37,2013-01-28 14:24:00,
2013-01-28 09:26:00,26.6,12.6,30.49,NNW,338,0.0,0.0,55,0.00,CLR,,0.00,WeatherDisplay:10.37,2013-01-28 14:26:00,
2013-01-28 09:27:00,26.6,12.6,30.49,NNW,338,0.0,0.0,55,0.00,CLR,,0.00,WeatherDisplay:10.37,2013-01-28 14:27:00,
2013-01-28 09:28:00,26.6,12.6,30.49,NNW,338,0.0,0.0,55,0.00,CLR,,0.00,WeatherDisplay:10.37,2013-01-28 14:28:00,
2013-01-28 09:30:00,26.6,12.6,30.49,NNW,338,0.0,0.0,55,0.00,CLR,,0.00,WeatherDisplay:10.37,2013-01-28 14:30:00,
2013-01-28 09:31:00,28.0,13.1,30.50,North,0,0.5,0.5,53,0.00,CLR,,0.00,WeatherDisplay:10.37,2013-01-28 14:31:00,
2013-01-28 09:32:00,28.0,13.1,30.50,North,0,0.0,0.5,53,0.00,CLR,,0.00,WeatherDisplay:10.37,2013-01-28 14:32:00,
2013-01-28 09:33:00,28.0,13.1,30.50,North,0,0.0,0.5,53,0.00,CLR,,0.00,WeatherDisplay:10.37,2013-01-28 14:33:00,
2013-01-28 09:35:00,28.0,13.1,30.50,North,0,0.0,0.5,53,0.00,CLR,,0.00,WeatherDisplay:10.37,2013-01-28 14:35:00,
2013-01-28 09:37:00,28.0,13.1,30.50,North,0,0.0,0.5,53,0.00,CLR,,0.00,WeatherDisplay:10.37,2013-01-28 14:37:00,
2013-01-28 09:38:00,28.0,13.1,30.50,North,0,0.0,0.5,53,0.00,CLR,,0.00,WeatherDisplay:10.37,2013-01-28 14:38:00,
2013-01-28 09:40:00,28.0,13.1,30.50,North,360,0.0,0.0,53,0.00,CLR,,0.00,WeatherDisplay:10.37,2013-01-28 14:40:00,
2013-01-28 09:42:00,28.0,13.1,30.50,North,0,0.0,0.5,53,0.00,CLR,,0.00,WeatherDisplay:10.37,2013-01-28 14:42:00,
2013-01-28 09:43:00,28.0,13.1,30.50,North,0,0.0,0.5,53,0.00,CLR,,0.00,WeatherDisplay:10.37,2013-01-28 14:43:00,
2013-01-28 09:45:00,28.0,13.1,30.50,North,0,0.0,0.5,53,0.00,CLR,,0.00,WeatherDisplay:10.37,2013-01-28 14:45:00,
2013-01-28 09:47:00,28.0,13.1,30.50,North,0,0.0,0.5,53,0.00,CLR,,0.00,WeatherDisplay:10.37,2013-01-28 14:47:00,
2013-01-28 09:48:00,28.0,13.1,30.50,North,0,0.0,0.5,53,0.00,CLR,,0.00,WeatherDisplay:10.37,2013-01-28 14:48:00,
2013-01-28 09:50:00,28.0,13.1,30.50,North,0,0.0,0.5,53,0.00,CLR,,0.00,WeatherDisplay:10.37,2013-01-28 14:50:00,
2013-01-28 09:52:00,28.0,13.1,30.50,North,0,0.0,0.5,53,0.00,CLR,,0.00,WeatherDisplay:10.37,2013-01-28 14:52:00,
2013-01-28 09:53:00,28.0,13.1,30.50,North,0,0.0,0.5,53,0.00,CLR,,0.00,WeatherDisplay:10.37,2013-01-28 14:53:00,
2013-01-28 09:54:00,28.0,13.1,30.50,North,0,0.0,0.5,53,0.00,CLR,,0.00,WeatherDisplay:10.37,2013-01-28 14:54:00,
2013-01-28 09:55:00,28.0,13.1,30.50,North,0,0.0,0.5,53,0.00,CLR,,0.00,WeatherDisplay:10.37,2013-01-28 14:55:00,
2013-01-28 09:58:00,28.0,13.1,30.50,North,0,0.0,0.5,53,0.00,CLR,,0.00,WeatherDisplay:10.37,2013-01-28 14:58:00,
2013-01-28 09:59:00,28.0,13.1,30.50,North,0,0.0,0.5,53,0.00,CLR,,0.00,WeatherDisplay:10.37,2013-01-28 14:59:00,
2013-01-28 10:00:00,28.0,13.1,30.50,North,0,0.0,0.5,53,0.00,CLR,,0.00,WeatherDisplay:10.37,2013-01-28 15:00:00,
2013-01-28 10:03:00,28.8,13.8,30.49,North,0,0.0,0.0,53,0.00,CLR,,0.00,WeatherDisplay:10.37,2013-01-28 15:03:00,
2013-01-28 10:04:00,28.8,13.8,30.49,North,0,0.0,0.0,53,0.00,CLR,,0.00,WeatherDisplay:10.37,2013-01-28 15:04:00,
2013-01-28 10:05:00,28.8,13.8,30.49,North,0,0.0,0.0,53,0.00,CLR,,0.00,WeatherDisplay:10.37,2013-01-28 15:05:00,
2013-01-28 10:08:00,28.8,13.8,30.49,North,0,0.0,0.0,53,0.00,CLR,,0.00,WeatherDisplay:10.37,2013-01-28 15:08:00,
2013-01-28 10:09:00,28.8,13.8,30.49,North,0,0.0,0.0,53,0.00,CLR,,0.00,WeatherDisplay:10.37,2013-01-28 15:09:00,
2013-01-28 10:10:00,28.8,13.8,30.49,North,0,0.0,0.0,53,0.00,CLR,,0.00,WeatherDisplay:10.37,2013-01-28 15:10:00,
2013-01-28 10:13:00,28.8,13.8,30.49,North,0,0.0,0.0,53,0.00,CLR,,0.00,WeatherDisplay:10.37,2013-01-28 15:13:00,
2013-01-28 10:14:00,28.8,13.8,30.49,North,0,0.0,0.0,53,0.00,CLR,,0.00,WeatherDisplay:10.37,2013-01-28 15:14:00,
2013-01-28 10:16:00,28.8,13.8,30.49,North,0,0.0,0.0,53,0.00,CLR,,0.00,WeatherDisplay:10.37,2013-01-28 15:16:00,
2013-01-28 10:18:00,28.8,13.8,30.49,North,0,0.0,0.0,53,0.00,CLR,,0.00,WeatherDisplay:10.37,2013-01-28 15:18:00,
2013-01-28 10:19:00,28.8,13.8,30.49,North,0,0.0,0.0,53,0.00,CLR,,0.00,WeatherDisplay:10.37,2013-01-28 15:19:00,
2013-01-28 10:21:00,28.8,13.8,30.49,North,0,0.0,0.0,53,0.00,CLR,,0.00,WeatherDisplay:10.37,2013-01-28 15:21:00,
2013-01-28 10:23:00,28.8,13.8,30.49,North,0,0.0,0.0,53,0.00,CLR,,0.00,WeatherDisplay:10.37,2013-01-28 15:23:00,
2013-01-28 10:24:00,28.8,13.8,30.49,North,0,0.0,0.0,53,0.00,CLR,,0.00,WeatherDisplay:10.37,2013-01-28 15:24:00,
2013-01-28 10:26:00,28.8,13.8,30.49,North,0,0.0,0.0,53,0.00,CLR,,0.00,WeatherDisplay:10.37,2013-01-28 15:26:00,
2013-01-28 10:29:00,28.8,13.8,30.49,North,0,0.0,0.0,53,0.00,CLR,,0.00,WeatherDisplay:10.37,2013-01-28 15:29:00,
2013-01-28 10:31:00,30.2,17.2,30.49,NW,315,0.0,0.0,58,0.00,CLR,,0.00,WeatherDisplay:10.37,2013-01-28 15:31:00,
2013-01-28 10:34:00,30.2,17.2,30.49,NW,315,0.0,0.0,58,0.00,CLR,,0.00,WeatherDisplay:10.37,2013-01-28 15:34:00,
2013-01-28 10:36:00,30.2,17.2,30.49,NW,315,0.0,0.0,58,0.00,CLR,,0.00,WeatherDisplay:10.37,2013-01-28 15:36:00,
2013-01-28 10:39:00,30.2,17.2,30.49,NW,315,0.0,0.0,58,0.00,CLR,,0.00,WeatherDisplay:10.37,2013-01-28 15:39:00,
2013-01-28 10:40:00,30.2,17.2,30.49,NW,315,0.0,0.0,58,0.00,CLR,,0.00,WeatherDisplay:10.37,2013-01-28 15:40:00,
2013-01-28 10:41:00,30.2,17.2,30.49,NW,315,0.0,0.0,58,0.00,CLR,,0.00,WeatherDisplay:10.37,2013-01-28 15:41:00,
2013-01-28 10:44:00,30.2,17.2,30.49,NW,315,0.0,0.0,58,0.00,CLR,,0.00,WeatherDisplay:10.37,2013-01-28 15:44:00,
2013-01-28 10:45:00,30.2,17.2,30.49,NW,315,0.0,0.0,58,0.00,CLR,,0.00,WeatherDisplay:10.37,2013-01-28 15:45:00,
2013-01-28 10:47:00,30.2,17.2,30.49,NW,315,0.0,0.0,58,0.00,CLR,,0.00,WeatherDisplay:10.37,2013-01-28 15:47:00,
2013-01-28 10:49:00,30.2,17.2,30.49,NW,315,0.0,0.0,58,0.00,CLR,,0.00,WeatherDisplay:10.37,2013-01-28 15:49:00,
2013-01-28 10:50:00,30.2,17.2,30.49,NW,315,0.0,0.0,58,0.00,CLR,,0.00,WeatherDisplay:10.37,2013-01-28 15:50:00,
2013-01-28 10:52:00,30.2,17.2,30.49,NW,315,0.0,0.0,58,0.00,CLR,,0.00,WeatherDisplay:10.37,2013-01-28 15:52:00,
2013-01-28 10:54:00,30.2,17.2,30.49,NW,315,0.0,0.0,58,0.00,CLR,,0.00,WeatherDisplay:10.37,2013-01-28 15:54:00,
2013-01-28 10:55:00,30.2,17.2,30.49,NW,315,0.0,0.0,58,0.00,CLR,,0.00,WeatherDisplay:10.37,2013-01-28 15:55:00,
2013-01-28 10:57:00,30.2,17.2,30.49,NW,315,0.0,0.0,58,0.00,CLR,,0.00,WeatherDisplay:10.37,2013-01-28 15:57:00,
2013-01-28 10:59:00,30.2,17.2,30.49,NW,315,0.0,0.0,58,0.00,CLR,,0.00,WeatherDisplay:10.37,2013-01-28 15:59:00,
2013-01-28 11:00:00,30.2,17.2,30.49,NW,315,0.0,0.0,58,0.00,CLR,,0.00,WeatherDisplay:10.37,2013-01-28 16:00:00,
2013-01-28 11:02:00,30.7,18.9,30.46,West,270,0.0,0.2,61,0.00,CLR,,0.00,WeatherDisplay:10.37,2013-01-28 16:02:00,
2013-01-28 11:04:00,30.7,18.9,30.46,West,270,0.0,0.2,61,0.00,CLR,,0.00,WeatherDisplay:10.37,2013-01-28 16:04:00,
2013-01-28 11:05:00,30.7,18.9,30.46,West,270,0.0,0.2,61,0.00,CLR,,0.00,WeatherDisplay:10.37,2013-01-28 16:05:00,
2013-01-28 11:07:00,30.7,18.9,30.46,West,270,0.2,0.2,61,0.00,CLR,,0.00,WeatherDisplay:10.37,2013-01-28 16:07:00,
2013-01-28 11:10:00,30.7,18.9,30.46,West,270,0.0,0.2,61,0.00,CLR,,0.00,WeatherDisplay:10.37,2013-01-28 16:10:00,
2013-01-28 11:11:00,30.7,18.9,30.46,West,270,0.0,0.2,61,0.00,CLR,,0.00,WeatherDisplay:10.37,2013-01-28 16:11:00,
2013-01-28 11:12:00,30.7,18.9,30.46,West,270,0.0,0.2,61,0.00,CLR,,0.00,WeatherDisplay:10.37,2013-01-28 16:12:00,
2013-01-28 11:15:00,30.7,18.9,30.46,West,270,0.0,0.2,61,0.00,CLR,,0.00,WeatherDisplay:10.37,2013-01-28 16:15:00,
2013-01-28 11:16:00,30.7,18.9,30.46,West,270,0.0,0.2,61,0.00,CLR,,0.00,WeatherDisplay:10.37,2013-01-28 16:16:00,
2013-01-28 11:17:00,30.7,18.9,30.46,West,270,0.0,0.2,61,0.00,CLR,,0.00,WeatherDisplay:10.37,2013-01-28 16:17:00,
2013-01-28 11:20:00,30.7,18.9,30.46,West,270,0.0,0.2,61,0.00,CLR,,0.00,WeatherDisplay:10.37,2013-01-28 16:20:00,
2013-01-28 11:21:00,30.7,18.9,30.46,West,270,0.0,0.2,61,0.00,CLR,,0.00,WeatherDisplay:10.37,2013-01-28 16:21:00,
2013-01-28 11:22:00,30.7,18.9,30.46,West,270,0.0,0.2,61,0.00,CLR,,0.00,WeatherDisplay:10.37,2013-01-28 16:22:00,
2013-01-28 11:25:00,30.7,18.9,30.46,West,270,0.0,0.2,61,0.00,CLR,,0.00,WeatherDisplay:10.37,2013-01-28 16:25:00,
2013-01-28 11:26:00,30.7,18.9,30.46,West,270,0.0,0.2,61,0.00,CLR,,0.00,WeatherDisplay:10.37,2013-01-28 16:26:00,
2013-01-28 11:28:00,30.7,18.9,30.46,West,270,0.0,0.2,61,0.00,CLR,,0.00,WeatherDisplay:10.37,2013-01-28 16:28:00,
2013-01-28 11:30:00,30.7,18.9,30.46,West,270,0.0,0.2,61,0.00,CLR,,0.00,WeatherDisplay:10.37,2013-01-28 16:30:00,
2013-01-28 11:31:00,31.5,20.3,30.44,North,0,0.0,0.2,63,0.00,CLR,,0.00,WeatherDisplay:10.37,2013-01-28 16:31:00,
2013-01-28 11:33:00,31.5,20.3,30.44,North,0,0.0,0.2,63,0.00,CLR,,0.00,WeatherDisplay:10.37,2013-01-28 16:33:00,
2013-01-28 11:35:00,31.5,20.3,30.44,North,0,0.0,0.2,63,0.00,CLR,,0.00,WeatherDisplay:10.37,2013-01-28 16:35:00,
2013-01-28 11:36:00,31.5,20.3,30.44,North,0,0.0,0.2,63,0.00,CLR,,0.00,WeatherDisplay:10.37,2013-01-28 16:36:00,
2013-01-28 11:38:00,31.5,20.3,30.44,North,0,0.0,0.2,63,0.00,CLR,,0.00,WeatherDisplay:10.37,2013-01-28 16:38:00,
2013-01-28 11:40:00,31.5,20.3,30.44,North,0,0.0,0.2,63,0.00,CLR,,0.00,WeatherDisplay:10.37,2013-01-28 16:40:00,
2013-01-28 11:41:00,31.5,20.3,30.44,North,0,0.0,0.2,63,0.00,CLR,,0.00,WeatherDisplay:10.37,2013-01-28 16:41:00,
2013-01-28 11:42:00,31.5,20.3,30.44,North,0,0.0,0.2,63,0.00,CLR,,0.00,WeatherDisplay:10.37,2013-01-28 16:42:00,
2013-01-28 11:43:00,31.5,20.3,30.44,North,0,0.0,0.2,63,0.00,CLR,,0.00,WeatherDisplay:10.37,2013-01-28 16:43:00,
2013-01-28 11:45:00,31.5,20.3,30.44,North,0,0.2,0.2,63,0.00,CLR,,0.00,WeatherDisplay:10.37,2013-01-28 16:45:00,
2013-01-28 11:46:00,31.5,20.3,30.44,North,0,0.0,0.2,63,0.00,CLR,,0.00,WeatherDisplay:10.37,2013-01-28 16:46:00,
2013-01-28 11:47:00,31.5,20.3,30.44,North,0,0.0,0.2,63,0.00,CLR,,0.00,WeatherDisplay:10.37,2013-01-28 16:47:00,
2013-01-28 11:48:00,31.5,20.3,30.44,North,0,0.0,0.2,63,0.00,CLR,,0.00,WeatherDisplay:10.37,2013-01-28 16:48:00,
2013-01-28 11:51:00,31.5,20.3,30.44,North,0,0.0,0.2,63,0.00,CLR,,0.00,WeatherDisplay:10.37,2013-01-28 16:51:00,
2013-01-28 11:52:00,31.5,20.3,30.44,North,0,0.0,0.2,63,0.00,CLR,,0.00,WeatherDisplay:10.37,2013-01-28 16:52:00,
2013-01-28 11:53:00,31.5,20.3,30.44,North,0,0.0,0.2,63,0.00,CLR,,0.00,WeatherDisplay:10.37,2013-01-28 16:53:00,
2013-01-28 11:56:00,31.5,20.3,30.44,North,0,0.0,0.2,63,0.00,CLR,,0.00,WeatherDisplay:10.37,2013-01-28 16:56:00,
2013-01-28 11:57:00,31.5,20.3,30.44,North,0,0.0,0.2,63,0.00,CLR,,0.00,WeatherDisplay:10.37,2013-01-28 16:57:00,
2013-01-28 11:58:00,31.5,20.3,30.44,North,0,0.2,0.2,63,0.00,CLR,,0.00,WeatherDisplay:10.37,2013-01-28 16:58:00,
2013-01-28 12:02:00,32.4,21.5,30.42,South,180,0.0,0.0,64,0.00,CLR,,0.00,WeatherDisplay:10.37,2013-01-28 17:02:00,
2013-01-28 12:04:00,32.4,21.5,30.42,South,180,0.0,0.0,64,0.00,CLR,,0.00,WeatherDisplay:10.37,2013-01-28 17:04:00,
2013-01-28 12:07:00,32.4,21.5,30.42,South,180,0.0,0.0,64,0.00,CLR,,0.00,WeatherDisplay:10.37,2013-01-28 17:07:00,
2013-01-28 12:09:00,32.4,21.5,30.42,South,180,0.0,0.0,64,0.00,CLR,,0.00,WeatherDisplay:10.37,2013-01-28 17:09:00,
2013-01-28 12:12:00,32.4,21.5,30.42,South,180,0.0,0.0,64,0.00,CLR,,0.00,WeatherDisplay:10.37,2013-01-28 17:12:00,
2013-01-28 12:14:00,32.4,21.5,30.42,South,180,0.0,0.0,64,0.00,CLR,,0.00,WeatherDisplay:10.37,2013-01-28 17:14:00,
2013-01-28 12:17:00,32.4,21.5,30.42,South,180,0.0,0.0,64,0.00,CLR,,0.00,WeatherDisplay:10.37,2013-01-28 17:17:00,
2013-01-28 12:19:00,32.4,21.5,30.42,South,180,0.0,0.0,64,0.00,CLR,,0.00,WeatherDisplay:10.37,2013-01-28 17:19:00,
2013-01-28 12:22:00,32.4,21.5,30.42,South,180,0.0,0.0,64,0.00,CLR,,0.00,WeatherDisplay:10.37,2013-01-28 17:22:00,
2013-01-28 12:25:00,32.4,21.5,30.42,South,180,0.0,0.0,64,0.00,CLR,,0.00,WeatherDisplay:10.37,2013-01-28 17:25:00,
2013-01-28 12:27:00,32.4,21.5,30.42,South,180,0.0,0.0,64,0.00,CLR,,0.00,WeatherDisplay:10.37,2013-01-28 17:27:00,
2013-01-28 12:28:00,32.4,21.5,30.42,South,180,0.0,0.0,64,0.00,CLR,,0.00,WeatherDisplay:10.37,2013-01-28 17:28:00,
2013-01-28 12:30:00,32.4,21.5,30.42,South,180,0.0,0.0,64,0.00,CLR,,0.00,WeatherDisplay:10.37,2013-01-28 17:30:00,
2013-01-28 12:32:00,32.5,22.4,30.38,South,180,0.2,0.2,66,0.00,CLR,,0.00,WeatherDisplay:10.37,2013-01-28 17:32:00,
2013-01-28 12:33:00,32.5,22.4,30.38,South,180,0.0,0.2,66,0.00,CLR,,0.00,WeatherDisplay:10.37,2013-01-28 17:33:00,
2013-01-28 12:35:00,32.5,22.4,30.38,South,180,0.0,0.2,66,0.00,CLR,,0.00,WeatherDisplay:10.37,2013-01-28 17:35:00,
2013-01-28 12:37:00,32.5,22.4,30.38,South,180,0.2,0.2,66,0.00,CLR,,0.00,WeatherDisplay:10.37,2013-01-28 17:37:00,
2013-01-28 12:38:00,32.5,22.4,30.38,South,180,0.0,0.2,66,0.00,CLR,,0.00,WeatherDisplay:10.37,2013-01-28 17:38:00,
2013-01-28 12:40:00,32.5,22.4,30.38,South,180,0.0,0.2,66,0.00,CLR,,0.00,WeatherDisplay:10.37,2013-01-28 17:40:00,
2013-01-28 12:43:00,32.5,22.4,30.38,South,180,0.0,0.2,66,0.00,CLR,,0.00,WeatherDisplay:10.37,2013-01-28 17:43:00,
2013-01-28 12:46:00,32.5,22.4,30.38,South,180,0.0,0.2,66,0.00,CLR,,0.00,WeatherDisplay:10.37,2013-01-28 17:46:00,
2013-01-28 12:48:00,32.5,22.4,30.38,South,180,0.0,0.2,66,0.00,CLR,,0.00,WeatherDisplay:10.37,2013-01-28 17:48:00,
2013-01-28 12:51:00,32.5,22.4,30.38,South,180,0.0,0.2,66,0.00,CLR,,0.00,WeatherDisplay:10.37,2013-01-28 17:51:00,
2013-01-28 12:53:00,32.5,22.4,30.38,South,180,0.0,0.2,66,0.00,CLR,,0.00,WeatherDisplay:10.37,2013-01-28 17:53:00,
2013-01-28 12:56:00,32.5,22.4,30.38,South,180,0.0,0.2,66,0.00,CLR,,0.00,WeatherDisplay:10.37,2013-01-28 17:56:00,
2013-01-28 12:58:00,32.5,22.4,30.38,South,180,0.0,0.2,66,0.00,CLR,,0.00,WeatherDisplay:10.37,2013-01-28 17:58:00,
2013-01-28 12:59:00,32.5,22.4,30.38,South,180,0.0,0.2,66,0.00,CLR,,0.00,WeatherDisplay:10.37,2013-01-28 17:59:00,
2013-01-28 13:01:00,32.9,23.1,30.34,South,180,0.0,0.5,67,0.00,CLR,,0.00,WeatherDisplay:10.37,2013-01-28 18:01:00,
2013-01-28 13:03:00,32.9,23.1,30.34,South,180,0.0,0.5,67,0.00,CLR,,0.00,WeatherDisplay:10.37,2013-01-28 18:03:00,
2013-01-28 13:04:00,32.9,23.1,30.34,South,180,0.0,0.5,67,0.00,CLR,,0.00,WeatherDisplay:10.37,2013-01-28 18:04:00,
2013-01-28 13:06:00,32.9,23.1,30.34,South,180,0.0,0.5,67,0.00,CLR,,0.00,WeatherDisplay:10.37,2013-01-28 18:06:00,
2013-01-28 13:08:00,32.9,23.1,30.34,South,180,0.0,0.5,67,0.00,CLR,,0.00,WeatherDisplay:10.37,2013-01-28 18:08:00,
2013-01-28 13:09:00,32.9,23.1,30.34,South,180,0.0,0.5,67,0.00,CLR,,0.00,WeatherDisplay:10.37,2013-01-28 18:09:00,
2013-01-28 13:11:00,32.9,23.1,30.34,South,180,0.0,0.5,67,0.00,CLR,,0.00,WeatherDisplay:10.37,2013-01-28 18:11:00,
2013-01-28 13:13:00,32.9,23.1,30.34,South,180,0.0,0.5,67,0.00,CLR,,0.00,WeatherDisplay:10.37,2013-01-28 18:13:00,
2013-01-28 13:14:00,32.9,23.1,30.34,South,180,0.0,0.5,67,0.00,CLR,,0.00,WeatherDisplay:10.37,2013-01-28 18:14:00,
2013-01-28 13:16:00,32.9,23.1,30.34,South,180,0.0,0.5,67,0.00,CLR,,0.00,WeatherDisplay:10.37,2013-01-28 18:16:00,
2013-01-28 13:18:00,32.9,23.1,30.34,South,180,0.0,0.5,67,0.00,CLR,,0.00,WeatherDisplay:10.37,2013-01-28 18:18:00,
2013-01-28 13:19:00,32.9,23.1,30.34,South,180,0.0,0.5,67,0.00,CLR,,0.00,WeatherDisplay:10.37,2013-01-28 18:19:00,
2013-01-28 13:22:00,32.9,23.1,30.34,South,180,0.0,0.5,67,0.00,CLR,,0.00,WeatherDisplay:10.37,2013-01-28 18:22:00,
2013-01-28 13:23:00,32.9,23.1,30.34,South,180,0.0,0.5,67,0.00,CLR,,0.00,WeatherDisplay:10.37,2013-01-28 18:23:00,
2013-01-28 13:24:00,32.9,23.1,30.34,South,180,0.0,0.5,67,0.00,CLR,,0.00,WeatherDisplay:10.37,2013-01-28 18:24:00,
2013-01-28 13:27:00,32.9,23.1,30.34,South,180,0.0,0.5,67,0.00,CLR,,0.00,WeatherDisplay:10.37,2013-01-28 18:27:00,
2013-01-28 13:28:00,32.9,23.1,30.34,South,180,0.0,0.5,67,0.00,CLR,,0.00,WeatherDisplay:10.37,2013-01-28 18:28:00,
2013-01-28 13:29:00,32.9,23.1,30.34,South,180,0.0,0.5,67,0.00,CLR,,0.00,WeatherDisplay:10.37,2013-01-28 18:29:00,
2013-01-28 13:32:00,33.6,24.2,30.31,South,180,0.0,0.5,68,0.00,CLR,,0.00,WeatherDisplay:10.37,2013-01-28 18:32:00,
2013-01-28 13:34:00,33.6,24.2,30.31,South,180,0.0,0.5,68,0.00,CLR,,0.00,WeatherDisplay:10.37,2013-01-28 18:34:00,
2013-01-28 13:35:00,33.6,24.2,30.31,South,180,0.0,0.5,68,0.00,CLR,,0.00,WeatherDisplay:10.37,2013-01-28 18:35:00,
2013-01-28 13:37:00,33.6,24.2,30.31,South,180,0.0,0.5,68,0.00,CLR,,0.00,WeatherDisplay:10.37,2013-01-28 18:37:00,
2013-01-28 13:39:00,33.6,24.2,30.31,South,180,0.0,0.5,68,0.00,CLR,,0.00,WeatherDisplay:10.37,2013-01-28 18:39:00,
2013-01-28 13:40:00,33.6,24.2,30.31,South,180,0.0,0.5,68,0.00,CLR,,0.00,WeatherDisplay:10.37,2013-01-28 18:40:00,
2013-01-28 13:42:00,33.6,24.2,30.31,South,180,0.0,0.5,68,0.00,CLR,,0.00,WeatherDisplay:10.37,2013-01-28 18:42:00,
2013-01-28 13:44:00,33.6,24.2,30.31,South,180,0.0,0.5,68,0.00,CLR,,0.00,WeatherDisplay:10.37,2013-01-28 18:44:00,
2013-01-28 13:45:00,33.6,24.2,30.31,South,180,0.0,0.5,68,0.00,CLR,,0.00,WeatherDisplay:10.37,2013-01-28 18:45:00,
2013-01-28 13:47:00,33.6,24.2,30.31,South,180,0.5,0.5,68,0.00,CLR,,0.00,WeatherDisplay:10.37,2013-01-28 18:47:00,
2013-01-28 13:49:00,33.6,24.2,30.31,South,180,0.0,0.5,68,0.00,CLR,,0.00,WeatherDisplay:10.37,2013-01-28 18:49:00,
2013-01-28 13:51:00,33.6,24.2,30.31,South,180,0.0,0.5,68,0.00,CLR,,0.00,WeatherDisplay:10.37,2013-01-28 18:51:00,
2013-01-28 13:53:00,33.6,24.2,30.31,South,180,0.0,0.5,68,0.00,CLR,,0.00,WeatherDisplay:10.37,2013-01-28 18:53:00,
2013-01-28 13:54:00,33.6,24.2,30.31,South,180,0.0,0.5,68,0.00,CLR,,0.00,WeatherDisplay:10.37,2013-01-28 18:54:00,
2013-01-28 13:56:00,33.6,24.2,30.31,South,180,0.0,0.5,68,0.00,CLR,,0.00,WeatherDisplay:10.37,2013-01-28 18:56:00,
2013-01-28 13:58:00,33.6,24.2,30.31,South,180,0.0,0.5,68,0.00,CLR,,0.00,WeatherDisplay:10.37,2013-01-28 18:58:00,
2013-01-28 13:59:00,33.6,24.2,30.31,South,180,0.0,0.5,68,0.00,CLR,,0.00,WeatherDisplay:10.37,2013-01-28 18:59:00,
2013-01-28 14:02:00,34.0,24.9,30.28,South,180,0.0,0.5,69,0.00,CLR,,0.00,WeatherDisplay:10.37,2013-01-28 19:02:00,
2013-01-28 14:03:00,34.0,24.9,30.28,South,180,0.0,0.5,69,0.00,CLR,,0.00,WeatherDisplay:10.37,2013-01-28 19:03:00,
2013-01-28 14:04:00,34.0,24.9,30.28,South,180,0.0,0.5,69,0.00,CLR,,0.00,WeatherDisplay:10.37,2013-01-28 19:04:00,
2013-01-28 14:07:00,34.0,24.9,30.28,South,180,0.0,0.5,69,0.00,CLR,,0.00,WeatherDisplay:10.37,2013-01-28 19:07:00,
2013-01-28 14:08:00,34.0,24.9,30.28,South,180,0.0,0.5,69,0.00,CLR,,0.00,WeatherDisplay:10.37,2013-01-28 19:08:00,
2013-01-28 14:09:00,34.0,24.9,30.28,South,180,0.0,0.5,69,0.00,CLR,,0.00,WeatherDisplay:10.37,2013-01-28 19:09:00,
2013-01-28 14:10:00,34.0,24.9,30.28,South,180,0.0,0.5,69,0.00,CLR,,0.00,WeatherDisplay:10.37,2013-01-28 19:10:00,
2013-01-28 14:12:00,34.0,24.9,30.28,South,180,0.0,0.5,69,0.00,CLR,,0.00,WeatherDisplay:10.37,2013-01-28 19:12:00,
2013-01-28 14:13:00,34.0,24.9,30.28,South,180,0.0,0.5,69,0.00,CLR,,0.00,WeatherDisplay:10.37,2013-01-28 19:13:00,
2013-01-28 14:14:00,34.0,24.9,30.28,South,180,0.0,0.5,69,0.00,CLR,,0.00,WeatherDisplay:10.37,2013-01-28 19:14:00,
2013-01-28 14:15:00,34.0,24.9,30.28,South,180,0.0,0.5,69,0.00,CLR,,0.00,WeatherDisplay:10.37,2013-01-28 19:15:00,
2013-01-28 14:17:00,34.0,24.9,30.28,South,180,0.0,0.5,69,0.00,CLR,,0.00,WeatherDisplay:10.37,2013-01-28 19:17:00,
2013-01-28 14:18:00,34.0,24.9,30.28,South,180,0.0,0.5,69,0.00,CLR,,0.00,WeatherDisplay:10.37,2013-01-28 19:18:00,
2013-01-28 14:20:00,34.0,24.9,30.28,South,180,0.0,0.5,69,0.00,CLR,,0.00,WeatherDisplay:10.37,2013-01-28 19:20:00,
2013-01-28 14:22:00,34.0,24.9,30.28,South,180,0.0,0.5,69,0.00,CLR,,0.00,WeatherDisplay:10.37,2013-01-28 19:22:00,
2013-01-28 14:23:00,34.0,24.9,30.28,South,180,0.0,0.5,69,0.00,CLR,,0.00,WeatherDisplay:10.37,2013-01-28 19:23:00,
2013-01-28 14:25:00,34.0,24.9,30.28,South,180,0.0,0.5,69,0.00,CLR,,0.00,WeatherDisplay:10.37,2013-01-28 19:25:00,
2013-01-28 14:27:00,34.0,24.9,30.28,South,180,0.0,0.5,69,0.00,CLR,,0.00,WeatherDisplay:10.37,2013-01-28 19:27:00,
2013-01-28 14:29:00,34.0,24.9,30.28,South,180,0.0,0.5,69,0.00,CLR,,0.00,WeatherDisplay:10.37,2013-01-28 19:29:00,
2013-01-28 14:30:00,34.0,24.9,30.28,South,180,0.0,0.0,69,0.00,CLR,,0.00,WeatherDisplay:10.37,2013-01-28 19:30:00,
2013-01-28 14:32:00,34.2,25.0,30.26,South,180,1.1,1.1,69,0.00,CLR,,0.00,WeatherDisplay:10.37,2013-01-28 19:32:00,
2013-01-28 14:34:00,34.2,25.0,30.26,South,180,1.1,1.1,69,0.00,CLR,,0.00,WeatherDisplay:10.37,2013-01-28 19:34:00,
2013-01-28 14:35:00,34.2,25.0,30.26,South,180,1.1,1.1,69,0.00,CLR,,0.00,WeatherDisplay:10.37,2013-01-28 19:35:00,
2013-01-28 14:37:00,34.2,25.0,30.26,South,180,1.1,1.1,69,0.00,CLR,,0.00,WeatherDisplay:10.37,2013-01-28 19:37:00,
2013-01-28 14:39:00,34.2,25.0,30.26,South,180,1.1,1.1,69,0.00,CLR,,0.00,WeatherDisplay:10.37,2013-01-28 19:39:00,
2013-01-28 14:40:00,34.2,25.0,30.26,South,180,1.1,1.1,69,0.00,CLR,,0.00,WeatherDisplay:10.37,2013-01-28 19:40:00,
2013-01-28 14:41:00,34.2,25.0,30.26,South,180,1.1,1.1,69,0.00,CLR,,0.00,WeatherDisplay:10.37,2013-01-28 19:41:00,
2013-01-28 14:42:00,34.2,25.0,30.26,South,180,1.1,1.1,69,0.00,CLR,,0.00,WeatherDisplay:10.37,2013-01-28 19:42:00,
2013-01-28 14:44:00,34.2,25.0,30.26,South,180,1.1,1.1,69,0.00,CLR,,0.00,WeatherDisplay:10.37,2013-01-28 19:44:00,
2013-01-28 14:45:00,34.2,25.0,30.26,South,180,1.1,1.1,69,0.00,CLR,,0.00,WeatherDisplay:10.37,2013-01-28 19:45:00,
2013-01-28 14:46:00,34.2,25.0,30.26,South,180,1.1,1.1,69,0.00,CLR,,0.00,WeatherDisplay:10.37,2013-01-28 19:46:00,
2013-01-28 14:47:00,34.2,25.0,30.26,South,180,1.1,1.1,69,0.00,CLR,,0.00,WeatherDisplay:10.37,2013-01-28 19:47:00,
2013-01-28 14:49:00,34.2,25.0,30.26,South,180,1.1,1.1,69,0.00,CLR,,0.00,WeatherDisplay:10.37,2013-01-28 19:49:00,
2013-01-28 14:50:00,34.2,25.0,30.26,South,180,1.1,1.1,69,0.00,CLR,,0.00,WeatherDisplay:10.37,2013-01-28 19:50:00,
2013-01-28 14:51:00,34.2,25.0,30.26,South,180,1.1,1.1,69,0.00,CLR,,0.00,WeatherDisplay:10.37,2013-01-28 19:51:00,
2013-01-28 14:52:00,34.2,25.0,30.26,South,180,1.1,1.1,69,0.00,CLR,,0.00,WeatherDisplay:10.37,2013-01-28 19:52:00,
2013-01-28 14:54:00,34.2,25.0,30.26,South,180,1.1,1.1,69,0.00,CLR,,0.00,WeatherDisplay:10.37,2013-01-28 19:54:00,
2013-01-28 14:55:00,34.2,25.0,30.26,South,180,1.1,1.1,69,0.00,CLR,,0.00,WeatherDisplay:10.37,2013-01-28 19:55:00,
2013-01-28 14:56:00,34.2,25.0,30.26,South,180,1.1,1.1,69,0.00,CLR,,0.00,WeatherDisplay:10.37,2013-01-28 19:56:00,
2013-01-28 14:57:00,34.2,25.0,30.26,South,180,1.1,1.1,69,0.00,CLR,,0.00,WeatherDisplay:10.37,2013-01-28 19:57:00,
2013-01-28 14:59:00,34.2,25.0,30.26,South,180,1.1,1.1,69,0.00,CLR,,0.00,WeatherDisplay:10.37,2013-01-28 19:59:00,
2013-01-28 15:00:00,34.0,25.2,30.23,South,180,3.3,3.3,70,0.00,CLR,,0.00,WeatherDisplay:10.37,2013-01-28 20:00:00,
2013-01-28 15:01:00,34.0,25.2,30.23,South,180,3.5,3.5,70,0.00,CLR,,0.00,WeatherDisplay:10.37,2013-01-28 20:01:00,
2013-01-28 15:02:00,34.0,25.2,30.23,South,180,3.5,3.5,70,0.00,CLR,,0.00,WeatherDisplay:10.37,2013-01-28 20:02:00,
2013-01-28 15:04:00,34.0,25.2,30.23,South,180,3.5,3.5,70,0.00,CLR,,0.00,WeatherDisplay:10.37,2013-01-28 20:04:00,
2013-01-28 15:05:00,34.0,25.2,30.23,South,180,3.5,3.5,70,0.00,CLR,,0.00,WeatherDisplay:10.37,2013-01-28 20:05:00,
2013-01-28 15:07:00,34.0,25.2,30.23,South,180,3.5,3.5,70,0.00,CLR,,0.00,WeatherDisplay:10.37,2013-01-28 20:07:00,
2013-01-28 15:09:00,34.0,25.2,30.23,South,180,3.5,3.5,70,0.00,CLR,,0.00,WeatherDisplay:10.37,2013-01-28 20:09:00,
2013-01-28 15:10:00,34.0,25.2,30.23,South,180,3.5,3.5,70,0.00,CLR,,0.00,WeatherDisplay:10.37,2013-01-28 20:10:00,
2013-01-28 15:12:00,34.0,25.2,30.23,South,180,3.5,3.5,70,0.00,CLR,,0.00,WeatherDisplay:10.37,2013-01-28 20:12:00,
2013-01-28 15:14:00,34.0,25.2,30.23,South,180,3.5,3.5,70,0.00,CLR,,0.00,WeatherDisplay:10.37,2013-01-28 20:14:00,
2013-01-28 15:15:00,34.0,25.2,30.23,South,180,3.5,3.5,70,0.00,CLR,,0.00,WeatherDisplay:10.37,2013-01-28 20:15:00,
2013-01-28 15:17:00,34.0,25.2,30.23,South,180,3.5,3.5,70,0.00,CLR,,0.00,WeatherDisplay:10.37,2013-01-28 20:17:00,
2013-01-28 15:18:00,34.0,25.2,30.23,South,180,3.5,3.5,70,0.00,CLR,,0.00,WeatherDisplay:10.37,2013-01-28 20:18:00,
2013-01-28 15:19:00,34.0,25.2,30.23,South,180,3.5,3.5,70,0.00,CLR,,0.00,WeatherDisplay:10.37,2013-01-28 20:19:00,
2013-01-28 15:21:00,34.0,25.2,30.23,South,180,3.5,3.5,70,0.00,CLR,,0.00,WeatherDisplay:10.37,2013-01-28 20:21:00,
2013-01-28 15:22:00,34.0,25.2,30.23,South,180,3.5,3.5,70,0.00,CLR,,0.00,WeatherDisplay:10.37,2013-01-28 20:22:00,
2013-01-28 15:23:00,34.0,25.2,30.23,South,180,3.5,3.5,70,0.00,CLR,,0.00,WeatherDisplay:10.37,2013-01-28 20:23:00,
2013-01-28 15:25:00,34.0,25.2,30.23,South,180,3.5,3.5,70,0.00,CLR,,0.00,WeatherDisplay:10.37,2013-01-28 20:25:00,
2013-01-28 15:26:00,34.0,25.2,30.23,South,180,3.5,3.5,70,0.00,CLR,,0.00,WeatherDisplay:10.37,2013-01-28 20:26:00,
2013-01-28 15:27:00,34.0,25.2,30.23,South,180,3.5,3.5,70,0.00,CLR,,0.00,WeatherDisplay:10.37,2013-01-28 20:27:00,
2013-01-28 15:28:00,34.0,25.2,30.23,South,180,3.5,3.5,70,0.00,CLR,,0.00,WeatherDisplay:10.37,2013-01-28 20:28:00,
2013-01-28 15:30:00,34.0,25.2,30.23,South,180,3.5,3.5,70,0.00,CLR,,0.00,WeatherDisplay:10.37,2013-01-28 20:30:00,
2013-01-28 15:31:00,34.0,25.6,30.22,NNW,338,3.5,3.5,71,0.00,CLR,,0.00,WeatherDisplay:10.37,2013-01-28 20:31:00,
2013-01-28 15:32:00,34.0,25.6,30.22,NNW,338,2.3,2.3,71,0.00,CLR,,0.00,WeatherDisplay:10.37,2013-01-28 20:32:00,
2013-01-28 15:33:00,34.0,25.6,30.22,NNW,338,2.3,2.3,71,0.00,CLR,,0.00,WeatherDisplay:10.37,2013-01-28 20:33:00,
2013-01-28 15:35:00,34.0,25.6,30.22,NNW,338,2.3,2.3,71,0.00,CLR,,0.00,WeatherDisplay:10.37,2013-01-28 20:35:00,
2013-01-28 15:36:00,34.0,25.6,30.22,NNW,338,2.3,2.3,71,0.00,CLR,,0.00,WeatherDisplay:10.37,2013-01-28 20:36:00,
2013-01-28 15:38:00,34.0,25.6,30.22,NNW,338,2.3,2.3,71,0.00,CLR,,0.00,WeatherDisplay:10.37,2013-01-28 20:38:00,
2013-01-28 15:39:00,34.0,25.6,30.22,NNW,338,2.3,2.3,71,0.00,CLR,,0.00,WeatherDisplay:10.37,2013-01-28 20:39:00,
2013-01-28 15:40:00,34.0,25.6,30.22,NNW,338,2.3,2.3,71,0.00,CLR,,0.00,WeatherDisplay:10.37,2013-01-28 20:40:00,
2013-01-28 15:42:00,34.0,25.6,30.22,NNW,338,2.3,2.3,71,0.00,CLR,,0.00,WeatherDisplay:10.37,2013-01-28 20:42:00,
2013-01-28 15:43:00,34.0,25.6,30.22,NNW,338,2.3,2.3,71,0.00,CLR,,0.00,WeatherDisplay:10.37,2013-01-28 20:43:00,
2013-01-28 15:44:00,34.0,25.6,30.22,NNW,338,2.3,2.3,71,0.00,CLR,,0.00,WeatherDisplay:10.37,2013-01-28 20:44:00,
2013-01-28 15:45:00,34.0,25.6,30.22,NNW,338,2.3,2.3,71,0.00,CLR,,0.00,WeatherDisplay:10.37,2013-01-28 20:45:00,
2013-01-28 15:47:00,34.0,25.6,30.22,NNW,338,2.3,2.3,71,0.00,CLR,,0.00,WeatherDisplay:10.37,2013-01-28 20:47:00,
2013-01-28 15:48:00,34.0,25.6,30.22,NNW,338,2.3,2.3,71,0.00,CLR,,0.00,WeatherDisplay:10.37,2013-01-28 20:48:00,
2013-01-28 15:49:00,34.0,25.6,30.22,NNW,338,2.3,2.3,71,0.00,CLR,,0.00,WeatherDisplay:10.37,2013-01-28 20:49:00,
2013-01-28 15:50:00,34.0,25.6,30.22,NNW,338,2.3,2.3,71,0.00,CLR,,0.00,WeatherDisplay:10.37,2013-01-28 20:50:00,
2013-01-28 15:53:00,34.0,25.6,30.22,NNW,338,2.3,2.3,71,0.00,CLR,,0.00,WeatherDisplay:10.37,2013-01-28 20:53:00,
2013-01-28 15:54:00,34.0,25.6,30.22,NNW,338,2.3,2.3,71,0.00,CLR,,0.00,WeatherDisplay:10.37,2013-01-28 20:54:00,
2013-01-28 15:56:00,34.0,25.6,30.22,NNW,338,2.3,2.3,71,0.00,CLR,,0.00,WeatherDisplay:10.37,2013-01-28 20:56:00,
2013-01-28 15:58:00,34.0,25.6,30.22,NNW,338,2.3,2.3,71,0.00,CLR,,0.00,WeatherDisplay:10.37,2013-01-28 20:58:00,
2013-01-28 15:59:00,34.0,25.6,30.22,NNW,338,2.3,2.3,71,0.00,CLR,,0.00,WeatherDisplay:10.37,2013-01-28 20:59:00,
2013-01-28 16:01:00,33.8,26.1,30.22,WSW,248,2.3,2.3,73,0.00,CLR,,0.00,WeatherDisplay:10.37,2013-01-28 21:01:00,
2013-01-28 16:03:00,33.8,26.1,30.22,WSW,248,1.1,1.1,73,0.00,CLR,,0.00,WeatherDisplay:10.37,2013-01-28 21:03:00,
2013-01-28 16:04:00,33.8,26.1,30.22,WSW,248,1.1,1.1,73,0.00,CLR,,0.00,WeatherDisplay:10.37,2013-01-28 21:04:00,
2013-01-28 16:06:00,33.8,26.1,30.22,WSW,248,1.1,1.1,73,0.00,CLR,,0.00,WeatherDisplay:10.37,2013-01-28 21:06:00,
2013-01-28 16:08:00,33.8,26.1,30.22,WSW,248,1.1,1.1,73,0.00,CLR,,0.00,WeatherDisplay:10.37,2013-01-28 21:08:00,
2013-01-28 16:10:00,33.8,26.1,30.22,WSW,248,1.1,1.1,73,0.00,CLR,,0.00,WeatherDisplay:10.37,2013-01-28 21:10:00,
2013-01-28 16:11:00,33.8,26.1,30.22,WSW,248,1.1,1.1,73,0.00,CLR,,0.00,WeatherDisplay:10.37,2013-01-28 21:11:00,
2013-01-28 16:13:00,33.8,26.1,30.22,WSW,248,1.1,1.1,73,0.00,CLR,,0.00,WeatherDisplay:10.37,2013-01-28 21:13:00,
2013-01-28 16:14:00,33.8,26.1,30.22,WSW,248,1.1,1.1,73,0.00,CLR,,0.00,WeatherDisplay:10.37,2013-01-28 21:14:00,
2013-01-28 16:15:00,33.8,26.1,30.22,WSW,248,1.1,1.1,73,0.00,CLR,,0.00,WeatherDisplay:10.37,2013-01-28 21:15:00,
2013-01-28 16:16:00,33.8,26.1,30.22,WSW,248,1.1,1.1,73,0.00,CLR,,0.00,WeatherDisplay:10.37,2013-01-28 21:16:00,
2013-01-28 16:18:00,33.8,26.1,30.22,WSW,248,1.1,1.1,73,0.00,CLR,,0.00,WeatherDisplay:10.37,2013-01-28 21:18:00,
2013-01-28 16:19:00,33.8,26.1,30.22,WSW,248,1.1,1.1,73,0.00,CLR,,0.00,WeatherDisplay:10.37,2013-01-28 21:19:00,
2013-01-28 16:20:00,33.8,26.1,30.22,WSW,248,1.1,1.1,73,0.00,CLR,,0.00,WeatherDisplay:10.37,2013-01-28 21:20:00,
2013-01-28 16:21:00,33.8,26.1,30.22,WSW,248,1.1,1.1,73,0.00,CLR,,0.00,WeatherDisplay:10.37,2013-01-28 21:21:00,
2013-01-28 16:23:00,33.8,26.1,30.22,WSW,248,1.1,1.1,73,0.00,CLR,,0.00,WeatherDisplay:10.37,2013-01-28 21:23:00,
2013-01-28 16:24:00,33.8,26.1,30.22,WSW,248,1.1,1.1,73,0.00,CLR,,0.00,WeatherDisplay:10.37,2013-01-28 21:24:00,
2013-01-28 16:25:00,33.8,26.1,30.22,WSW,248,1.1,1.1,73,0.00,CLR,,0.00,WeatherDisplay:10.37,2013-01-28 21:25:00,
2013-01-28 16:27:00,33.8,26.1,30.22,WSW,248,1.1,1.1,73,0.00,CLR,,0.00,WeatherDisplay:10.37,2013-01-28 21:27:00,
2013-01-28 16:28:00,33.8,26.1,30.22,WSW,248,1.1,1.1,73,0.00,CLR,,0.00,WeatherDisplay:10.37,2013-01-28 21:28:00,
2013-01-28 16:29:00,33.8,26.1,30.22,WSW,248,1.1,1.1,73,0.00,CLR,,0.00,WeatherDisplay:10.37,2013-01-28 21:29:00,
2013-01-28 16:30:00,33.8,26.1,30.22,WSW,248,1.1,1.1,73,0.00,CLR,,0.00,WeatherDisplay:10.37,2013-01-28 21:30:00,
2013-01-28 16:32:00,34.0,26.6,30.22,NW,315,1.1,0.0,74,0.00,CLR,,0.00,WeatherDisplay:10.37,2013-01-28 21:32:00,
2013-01-28 16:33:00,34.0,26.6,30.22,NW,315,0.0,0.0,74,0.00,CLR,,0.00,WeatherDisplay:10.37,2013-01-28 21:33:00,
2013-01-28 16:35:00,34.0,26.6,30.22,NW,315,0.0,0.0,74,0.00,CLR,,0.00,WeatherDisplay:10.37,2013-01-28 21:35:00,
2013-01-28 16:37:00,34.0,26.6,30.22,NW,315,0.0,0.0,74,0.00,CLR,,0.00,WeatherDisplay:10.37,2013-01-28 21:37:00,
2013-01-28 16:38:00,34.0,26.6,30.22,NW,315,0.0,0.0,74,0.00,CLR,,0.00,WeatherDisplay:10.37,2013-01-28 21:38:00,
2013-01-28 16:40:00,34.0,26.6,30.22,NW,315,0.0,0.0,74,0.00,CLR,,0.00,WeatherDisplay:10.37,2013-01-28 21:40:00,
2013-01-28 16:43:00,34.0,26.6,30.22,NW,315,0.0,0.0,74,0.00,CLR,,0.00,WeatherDisplay:10.37,2013-01-28 21:43:00,
2013-01-28 16:44:00,34.0,26.6,30.22,NW,315,0.0,0.0,74,0.00,CLR,,0.00,WeatherDisplay:10.37,2013-01-28 21:44:00,
2013-01-28 16:45:00,34.0,26.6,30.22,NW,315,0.0,0.0,74,0.00,CLR,,0.00,WeatherDisplay:10.37,2013-01-28 21:45:00,
2013-01-28 16:49:00,34.0,26.6,30.22,NW,315,0.0,0.0,74,0.00,CLR,,0.00,WeatherDisplay:10.37,2013-01-28 21:49:00,
2013-01-28 16:50:00,34.0,26.6,30.22,NW,315,0.0,0.0,74,0.00,CLR,,0.00,WeatherDisplay:10.37,2013-01-28 21:50:00,
2013-01-28 16:51:00,34.0,26.6,30.22,NW,315,0.0,0.0,74,0.00,CLR,,0.00,WeatherDisplay:10.37,2013-01-28 21:51:00,
2013-01-28 16:54:00,34.0,26.6,30.22,NW,315,0.0,0.0,74,0.00,CLR,,0.00,WeatherDisplay:10.37,2013-01-28 21:54:00,
2013-01-28 16:55:00,34.0,26.6,30.22,NW,315,0.0,0.0,74,0.00,CLR,,0.00,WeatherDisplay:10.37,2013-01-28 21:55:00,
2013-01-28 16:56:00,34.0,26.6,30.22,NW,315,0.0,0.0,74,0.00,CLR,,0.00,WeatherDisplay:10.37,2013-01-28 21:56:00,
2013-01-28 16:59:00,34.0,26.6,30.22,NW,315,0.0,0.0,74,0.00,CLR,,0.00,WeatherDisplay:10.37,2013-01-28 21:59:00,
2013-01-28 17:00:00,34.0,26.6,30.22,NW,315,0.0,0.0,74,0.00,CLR,,0.00,WeatherDisplay:10.37,2013-01-28 22:00:00,
2013-01-28 17:01:00,34.3,27.2,30.21,WNW,292,0.0,0.0,75,0.00,CLR,,0.00,WeatherDisplay:10.37,2013-01-28 22:01:00,
2013-01-28 17:04:00,34.3,27.2,30.21,WNW,292,0.0,0.0,75,0.00,CLR,,0.00,WeatherDisplay:10.37,2013-01-28 22:04:00,
2013-01-28 17:05:00,34.3,27.2,30.21,WNW,292,0.0,0.0,75,0.00,CLR,,0.00,WeatherDisplay:10.37,2013-01-28 22:05:00,
2013-01-28 17:06:00,34.3,27.2,30.21,WNW,292,0.0,0.0,75,0.00,CLR,,0.00,WeatherDisplay:10.37,2013-01-28 22:06:00,
2013-01-28 17:09:00,34.3,27.2,30.21,WNW,292,0.0,0.0,75,0.00,CLR,,0.00,WeatherDisplay:10.37,2013-01-28 22:09:00,
2013-01-28 17:10:00,34.3,27.2,30.21,WNW,292,0.0,0.0,75,0.00,CLR,,0.00,WeatherDisplay:10.37,2013-01-28 22:10:00,
2013-01-28 17:11:00,34.3,27.2,30.21,WNW,292,0.0,0.0,75,0.00,CLR,,0.00,WeatherDisplay:10.37,2013-01-28 22:11:00,
2013-01-28 17:14:00,34.3,27.2,30.21,WNW,292,0.0,0.0,75,0.00,CLR,,0.00,WeatherDisplay:10.37,2013-01-28 22:14:00,
2013-01-28 17:15:00,34.3,27.2,30.21,WNW,292,0.0,0.0,75,0.00,CLR,,0.00,WeatherDisplay:10.37,2013-01-28 22:15:00,
2013-01-28 17:16:00,34.3,27.2,30.21,WNW,292,0.0,0.0,75,0.00,CLR,,0.00,WeatherDisplay:10.37,2013-01-28 22:16:00,
2013-01-28 17:17:00,34.3,27.2,30.21,WNW,292,0.0,0.0,75,0.00,CLR,,0.00,WeatherDisplay:10.37,2013-01-28 22:17:00,
2013-01-28 17:19:00,34.3,27.2,30.21,WNW,292,0.0,0.0,75,0.00,CLR,,0.00,WeatherDisplay:10.37,2013-01-28 22:19:00,
2013-01-28 17:20:00,34.3,27.2,30.21,WNW,292,0.0,0.0,75,0.00,CLR,,0.00,WeatherDisplay:10.37,2013-01-28 22:20:00,
2013-01-28 17:21:00,34.3,27.2,30.21,WNW,292,0.0,0.0,75,0.00,CLR,,0.00,WeatherDisplay:10.37,2013-01-28 22:21:00,
2013-01-28 17:22:00,34.3,27.2,30.21,WNW,292,0.0,0.0,75,0.00,CLR,,0.00,WeatherDisplay:10.37,2013-01-28 22:22:00,
2013-01-28 17:24:00,34.3,27.2,30.21,WNW,292,0.0,0.0,75,0.00,CLR,,0.00,WeatherDisplay:10.37,2013-01-28 22:24:00,
2013-01-28 17:25:00,34.3,27.2,30.21,WNW,292,0.0,0.0,75,0.00,CLR,,0.00,WeatherDisplay:10.37,2013-01-28 22:25:00,
2013-01-28 17:26:00,34.3,27.2,30.21,WNW,292,0.0,0.0,75,0.00,CLR,,0.00,WeatherDisplay:10.37,2013-01-28 22:26:00,
2013-01-28 17:27:00,34.3,27.2,30.21,WNW,292,0.0,0.0,75,0.00,CLR,,0.00,WeatherDisplay:10.37,2013-01-28 22:27:00,
2013-01-28 17:30:00,34.3,27.2,30.21,WNW,292,0.0,0.0,75,0.00,CLR,,0.00,WeatherDisplay:10.37,2013-01-28 22:30:00,
2013-01-28 17:31:00,34.7,27.9,30.19,WNW,292,0.0,0.0,76,0.00,CLR,,0.00,WeatherDisplay:10.37,2013-01-28 22:31:00,
2013-01-28 17:32:00,34.7,27.9,30.19,WNW,292,0.0,0.0,76,0.00,CLR,,0.00,WeatherDisplay:10.37,2013-01-28 22:32:00,
2013-01-28 17:35:00,34.7,27.9,30.19,WNW,292,0.0,0.0,76,0.00,CLR,,0.00,WeatherDisplay:10.37,2013-01-28 22:35:00,
2013-01-28 17:36:00,34.7,27.9,30.19,WNW,292,0.0,0.0,76,0.00,CLR,,0.00,WeatherDisplay:10.37,2013-01-28 22:36:00,
2013-01-28 17:37:00,34.7,27.9,30.19,WNW,292,0.0,0.0,76,0.00,CLR,,0.00,WeatherDisplay:10.37,2013-01-28 22:37:00,
2013-01-28 17:40:00,34.7,27.9,30.19,WNW,292,0.0,0.0,76,0.00,CLR,,0.00,WeatherDisplay:10.37,2013-01-28 22:40:00,
2013-01-28 17:41:00,34.7,27.9,30.19,WNW,292,0.0,0.0,76,0.00,CLR,,0.00,WeatherDisplay:10.37,2013-01-28 22:41:00,
2013-01-28 17:42:00,34.7,27.9,30.19,WNW,292,0.0,0.0,76,0.00,CLR,,0.00,WeatherDisplay:10.37,2013-01-28 22:42:00,
2013-01-28 17:45:00,34.7,27.9,30.19,WNW,292,0.0,0.0,76,0.00,CLR,,0.00,WeatherDisplay:10.37,2013-01-28 22:45:00,
2013-01-28 17:46:00,34.7,27.9,30.19,WNW,292,0.0,0.0,76,0.00,CLR,,0.00,WeatherDisplay:10.37,2013-01-28 22:46:00,
2013-01-28 17:47:00,34.7,27.9,30.19,WNW,292,0.0,0.0,76,0.00,CLR,,0.00,WeatherDisplay:10.37,2013-01-28 22:47:00,
2013-01-28 17:50:00,34.7,27.9,30.19,WNW,292,0.0,0.0,76,0.00,CLR,,0.00,WeatherDisplay:10.37,2013-01-28 22:50:00,
2013-01-28 17:52:00,34.7,27.9,30.19,WNW,292,0.0,0.0,76,0.00,CLR,,0.00,WeatherDisplay:10.37,2013-01-28 22:52:00,
2013-01-28 17:55:00,34.7,27.9,30.19,WNW,292,0.0,0.0,76,0.00,CLR,,0.00,WeatherDisplay:10.37,2013-01-28 22:55:00,
2013-01-28 17:57:00,34.7,27.9,30.19,WNW,292,0.0,0.0,76,0.00,CLR,,0.00,WeatherDisplay:10.37,2013-01-28 22:57:00,
2013-01-28 18:00:00,34.7,27.9,30.19,WNW,292,0.0,0.0,76,0.00,CLR,,0.00,WeatherDisplay:10.37,2013-01-28 23:00:00,
2013-01-28 18:02:00,34.9,28.1,30.19,NE,45,0.0,0.0,76,0.00,CLR,,0.00,WeatherDisplay:10.37,2013-01-28 23:02:00,
2013-01-28 18:03:00,34.9,28.1,30.19,NE,45,0.0,0.0,76,0.00,CLR,,0.00,WeatherDisplay:10.37,2013-01-28 23:03:00,
2013-01-28 18:05:00,34.9,28.1,30.19,NE,45,0.0,0.0,76,0.00,CLR,,0.00,WeatherDisplay:10.37,2013-01-28 23:05:00,
2013-01-28 18:07:00,34.9,28.1,30.19,NE,45,0.0,0.0,76,0.00,CLR,,0.00,WeatherDisplay:10.37,2013-01-28 23:07:00,
2013-01-28 18:08:00,34.9,28.1,30.19,NE,45,0.0,0.0,76,0.00,CLR,,0.00,WeatherDisplay:10.37,2013-01-28 23:08:00,
2013-01-28 18:10:00,34.9,28.1,30.19,NE,45,0.0,0.0,76,0.00,CLR,,0.00,WeatherDisplay:10.37,2013-01-28 23:10:00,
2013-01-28 18:12:00,34.9,28.1,30.19,NE,45,0.0,0.0,76,0.00,CLR,,0.00,WeatherDisplay:10.37,2013-01-28 23:12:00,
2013-01-28 18:14:00,34.9,28.1,30.19,NE,45,0.0,0.0,76,0.00,CLR,,0.00,WeatherDisplay:10.37,2013-01-28 23:14:00,
2013-01-28 18:15:00,34.9,28.1,30.19,NE,45,0.0,0.0,76,0.00,CLR,,0.00,WeatherDisplay:10.37,2013-01-28 23:15:00,
2013-01-28 18:17:00,34.9,28.1,30.19,NE,45,0.0,0.0,76,0.00,CLR,,0.00,WeatherDisplay:10.37,2013-01-28 23:17:00,
2013-01-28 18:18:00,34.9,28.1,30.19,NE,45,0.0,0.0,76,0.00,CLR,,0.00,WeatherDisplay:10.37,2013-01-28 23:18:00,
2013-01-28 18:19:00,34.9,28.1,30.19,NE,45,0.0,0.0,76,0.00,CLR,,0.00,WeatherDisplay:10.37,2013-01-28 23:19:00,
2013-01-28 18:21:00,34.9,28.1,30.19,NE,45,0.0,0.0,76,0.00,CLR,,0.00,WeatherDisplay:10.37,2013-01-28 23:21:00,
2013-01-28 18:23:00,34.9,28.1,30.19,NE,45,0.0,0.0,76,0.00,CLR,,0.00,WeatherDisplay:10.37,2013-01-28 23:23:00,
2013-01-28 18:24:00,34.9,28.1,30.19,NE,45,0.0,0.0,76,0.00,CLR,,0.00,WeatherDisplay:10.37,2013-01-28 23:24:00,
2013-01-28 18:27:00,34.9,28.1,30.19,NE,45,0.0,0.0,76,0.00,CLR,,0.00,WeatherDisplay:10.37,2013-01-28 23:27:00,
2013-01-28 18:28:00,34.9,28.1,30.19,NE,45,0.0,0.0,76,0.00,CLR,,0.00,WeatherDisplay:10.37,2013-01-28 23:28:00,
2013-01-28 18:29:00,34.9,28.1,30.19,NE,45,0.0,0.0,76,0.00,CLR,,0.00,WeatherDisplay:10.37,2013-01-28 23:29:00,
2013-01-28 18:32:00,34.9,28.1,30.17,NNW,338,0.0,0.5,76,0.00,CLR,,0.00,WeatherDisplay:10.37,2013-01-28 23:32:00,
2013-01-28 18:33:00,34.9,28.1,30.17,NNW,338,0.0,0.5,76,0.00,CLR,,0.00,WeatherDisplay:10.37,2013-01-28 23:33:00,
2013-01-28 18:34:00,34.9,28.1,30.17,NNW,338,0.0,0.5,76,0.00,CLR,,0.00,WeatherDisplay:10.37,2013-01-28 23:34:00,
2013-01-28 18:37:00,34.9,28.1,30.17,NNW,338,0.0,0.5,76,0.00,CLR,,0.00,WeatherDisplay:10.37,2013-01-28 23:37:00,
2013-01-28 18:38:00,34.9,28.1,30.17,NNW,338,0.0,0.5,76,0.00,CLR,,0.00,WeatherDisplay:10.37,2013-01-28 23:38:00,
2013-01-28 18:39:00,34.9,28.1,30.17,NNW,338,0.0,0.5,76,0.00,CLR,,0.00,WeatherDisplay:10.37,2013-01-28 23:39:00,
2013-01-28 18:42:00,34.9,28.1,30.17,NNW,338,0.0,0.5,76,0.00,CLR,,0.00,WeatherDisplay:10.37,2013-01-28 23:42:00,
2013-01-28 18:43:00,34.9,28.1,30.17,NNW,338,0.0,0.5,76,0.00,CLR,,0.00,WeatherDisplay:10.37,2013-01-28 23:43:00,
2013-01-28 18:44:00,34.9,28.1,30.17,NNW,338,0.0,0.5,76,0.00,CLR,,0.00,WeatherDisplay:10.37,2013-01-28 23:44:00,
2013-01-28 18:45:00,34.9,28.1,30.17,NNW,338,0.0,0.5,76,0.00,CLR,,0.00,WeatherDisplay:10.37,2013-01-28 23:45:00,
2013-01-28 18:47:00,34.9,28.1,30.17,NNW,338,0.0,0.5,76,0.00,CLR,,0.00,WeatherDisplay:10.37,2013-01-28 23:47:00,
2013-01-28 18:49:00,34.9,28.1,30.17,NNW,338,0.0,0.5,76,0.00,CLR,,0.00,WeatherDisplay:10.37,2013-01-28 23:49:00,
2013-01-28 18:50:00,34.9,28.1,30.17,NNW,338,0.0,0.5,76,0.00,CLR,,0.00,WeatherDisplay:10.37,2013-01-28 23:50:00,
2013-01-28 18:52:00,34.9,28.1,30.17,NNW,338,0.0,0.5,76,0.00,CLR,,0.00,WeatherDisplay:10.37,2013-01-28 23:52:00,
2013-01-28 18:54:00,34.9,28.1,30.17,NNW,338,0.0,0.5,76,0.00,CLR,,0.00,WeatherDisplay:10.37,2013-01-28 23:54:00,
2013-01-28 18:55:00,34.9,28.1,30.17,NNW,338,0.0,0.5,76,0.00,CLR,,0.00,WeatherDisplay:10.37,2013-01-28 23:55:00,
2013-01-28 18:57:00,34.9,28.1,30.17,NNW,338,0.5,0.5,76,0.00,CLR,,0.00,WeatherDisplay:10.37,2013-01-28 23:57:00,
2013-01-28 18:59:00,34.9,28.1,30.17,NNW,338,0.0,0.5,76,0.00,CLR,,0.00,WeatherDisplay:10.37,2013-01-28 23:59:00,
2013-01-28 19:00:00,34.9,28.1,30.17,NNW,338,0.0,0.5,76,0.00,CLR,,0.00,WeatherDisplay:10.37,2013-01-29 00:00:00,
2013-01-28 19:02:00,35.1,28.6,30.16,NNW,338,1.1,1.1,77,0.00,CLR,,0.00,WeatherDisplay:10.37,2013-01-29 00:02:00,
2013-01-28 19:04:00,35.1,28.6,30.16,NNW,338,1.1,1.1,77,0.00,CLR,,0.00,WeatherDisplay:10.37,2013-01-29 00:04:00,
2013-01-28 19:05:00,35.1,28.6,30.16,NNW,338,1.1,1.1,77,0.00,CLR,,0.00,WeatherDisplay:10.37,2013-01-29 00:05:00,
2013-01-28 19:08:00,35.1,28.6,30.16,NNW,338,1.1,1.1,77,0.00,CLR,,0.00,WeatherDisplay:10.37,2013-01-29 00:08:00,
2013-01-28 19:09:00,35.1,28.6,30.16,NNW,338,1.1,1.1,77,0.00,CLR,,0.00,WeatherDisplay:10.37,2013-01-29 00:09:00,
2013-01-28 19:10:00,35.1,28.6,30.16,NNW,338,1.1,1.1,77,0.00,CLR,,0.00,WeatherDisplay:10.37,2013-01-29 00:10:00,
2013-01-28 19:13:00,35.1,28.6,30.16,NNW,338,1.1,1.1,77,0.00,CLR,,0.00,WeatherDisplay:10.37,2013-01-29 00:13:00,
2013-01-28 19:14:00,35.1,28.6,30.16,NNW,338,1.1,1.1,77,0.00,CLR,,0.00,WeatherDisplay:10.37,2013-01-29 00:14:00,
2013-01-28 19:15:00,35.1,28.6,30.16,NNW,338,1.1,1.1,77,0.00,CLR,,0.00,WeatherDisplay:10.37,2013-01-29 00:15:00,
2013-01-28 19:18:00,35.1,28.6,30.16,NNW,338,1.1,1.1,77,0.00,CLR,,0.00,WeatherDisplay:10.37,2013-01-29 00:18:00,
2013-01-28 19:19:00,35.1,28.6,30.16,NNW,338,1.1,1.1,77,0.00,CLR,,0.00,WeatherDisplay:10.37,2013-01-29 00:19:00,
2013-01-28 19:20:00,35.1,28.6,30.16,NNW,338,1.1,1.1,77,0.00,CLR,,0.00,WeatherDisplay:10.37,2013-01-29 00:20:00,
2013-01-28 19:24:00,35.1,28.6,30.16,NNW,338,1.1,1.1,77,0.00,CLR,,0.00,WeatherDisplay:10.37,2013-01-29 00:24:00,
2013-01-28 19:25:00,35.1,28.6,30.16,NNW,338,1.1,1.1,77,0.00,CLR,,0.00,WeatherDisplay:10.37,2013-01-29 00:25:00,
2013-01-28 19:26:00,35.1,28.6,30.16,NNW,338,1.1,1.1,77,0.00,CLR,,0.00,WeatherDisplay:10.37,2013-01-29 00:26:00,
2013-01-28 19:29:00,35.1,28.6,30.16,NNW,338,1.1,1.1,77,0.00,CLR,,0.00,WeatherDisplay:10.37,2013-01-29 00:29:00,
2013-01-28 19:30:00,35.1,28.6,30.16,NNW,338,1.1,1.1,77,0.00,CLR,,0.00,WeatherDisplay:10.37,2013-01-29 00:30:00,
2013-01-28 19:31:00,35.1,28.6,30.15,NNW,338,1.1,0.0,77,0.00,CLR,,0.00,WeatherDisplay:10.37,2013-01-29 00:31:00,
2013-01-28 19:34:00,35.1,28.6,30.15,NNW,338,0.0,0.0,77,0.00,CLR,,0.00,WeatherDisplay:10.37,2013-01-29 00:34:00,
2013-01-28 19:35:00,35.1,28.6,30.15,NNW,338,0.0,0.0,77,0.00,CLR,,0.00,WeatherDisplay:10.37,2013-01-29 00:35:00,
2013-01-28 19:36:00,35.1,28.6,30.15,NNW,338,0.0,0.0,77,0.00,CLR,,0.00,WeatherDisplay:10.37,2013-01-29 00:36:00,
2013-01-28 19:39:00,35.1,28.6,30.15,NNW,338,0.0,0.0,77,0.00,CLR,,0.00,WeatherDisplay:10.37,2013-01-29 00:39:00,
2013-01-28 19:40:00,35.1,28.6,30.15,NNW,338,0.0,0.0,77,0.00,CLR,,0.00,WeatherDisplay:10.37,2013-01-29 00:40:00,
2013-01-28 19:41:00,35.1,28.6,30.15,NNW,338,0.0,0.0,77,0.00,CLR,,0.00,WeatherDisplay:10.37,2013-01-29 00:41:00,
2013-01-28 19:44:00,35.1,28.6,30.15,NNW,338,0.0,0.0,77,0.00,CLR,,0.00,WeatherDisplay:10.37,2013-01-29 00:44:00,
2013-01-28 19:45:00,35.1,28.6,30.15,NNW,338,0.0,0.0,77,0.00,CLR,,0.00,WeatherDisplay:10.37,2013-01-29 00:45:00,
2013-01-28 19:47:00,35.1,28.6,30.15,NNW,338,0.0,0.0,77,0.00,CLR,,0.00,WeatherDisplay:10.37,2013-01-29 00:47:00,
2013-01-28 19:49:00,35.1,28.6,30.15,NNW,338,0.0,0.0,77,0.00,CLR,,0.00,WeatherDisplay:10.37,2013-01-29 00:49:00,
2013-01-28 19:50:00,35.1,28.6,30.15,NNW,338,0.0,0.0,77,0.00,CLR,,0.00,WeatherDisplay:10.37,2013-01-29 00:50:00,
2013-01-28 19:51:00,35.1,28.6,30.15,NNW,338,0.0,0.0,77,0.00,CLR,,0.00,WeatherDisplay:10.37,2013-01-29 00:51:00,
2013-01-28 19:52:00,35.1,28.6,30.15,NNW,338,0.0,0.0,77,0.00,CLR,,0.00,WeatherDisplay:10.37,2013-01-29 00:52:00,
2013-01-28 19:54:00,35.1,28.6,30.15,NNW,338,0.0,0.0,77,0.00,CLR,,0.00,WeatherDisplay:10.37,2013-01-29 00:54:00,
2013-01-28 19:55:00,35.1,28.6,30.15,NNW,338,0.0,0.0,77,0.00,CLR,,0.00,WeatherDisplay:10.37,2013-01-29 00:55:00,
2013-01-28 19:56:00,35.1,28.6,30.15,NNW,338,0.0,0.0,77,0.00,CLR,,0.00,WeatherDisplay:10.37,2013-01-29 00:56:00,
2013-01-28 19:57:00,35.1,28.6,30.15,NNW,338,0.0,0.0,77,0.00,CLR,,0.00,WeatherDisplay:10.37,2013-01-29 00:57:00,
2013-01-28 19:59:00,35.1,28.6,30.15,NNW,338,0.0,0.0,77,0.00,CLR,,0.00,WeatherDisplay:10.37,2013-01-29 00:59:00,
2013-01-28 20:00:00,35.1,28.6,30.15,NNW,338,0.0,0.0,77,0.00,CLR,,0.00,WeatherDisplay:10.37,2013-01-29 01:00:00,
2013-01-28 20:01:00,35.2,28.8,30.15,NNW,338,1.1,1.1,77,0.00,CLR,,0.00,WeatherDisplay:10.37,2013-01-29 01:01:00,
2013-01-28 20:02:00,35.2,28.8,30.15,NNW,338,1.1,1.1,77,0.00,CLR,,0.00,WeatherDisplay:10.37,2013-01-29 01:02:00,
2013-01-28 20:04:00,35.2,28.8,30.15,NNW,338,1.1,1.1,77,0.00,CLR,,0.00,WeatherDisplay:10.37,2013-01-29 01:04:00,
2013-01-28 20:05:00,35.2,28.8,30.15,NNW,338,1.1,1.1,77,0.00,CLR,,0.00,WeatherDisplay:10.37,2013-01-29 01:05:00,
2013-01-28 20:06:00,35.2,28.8,30.15,NNW,338,1.1,1.1,77,0.00,CLR,,0.00,WeatherDisplay:10.37,2013-01-29 01:06:00,
2013-01-28 20:07:00,35.2,28.8,30.15,NNW,338,1.1,1.1,77,0.00,CLR,,0.00,WeatherDisplay:10.37,2013-01-29 01:07:00,
2013-01-28 20:09:00,35.2,28.8,30.15,NNW,338,1.1,1.1,77,0.00,CLR,,0.00,WeatherDisplay:10.37,2013-01-29 01:09:00,
2013-01-28 20:11:00,35.2,28.8,30.15,NNW,338,1.1,1.1,77,0.00,CLR,,0.00,WeatherDisplay:10.37,2013-01-29 01:11:00,
2013-01-28 20:12:00,35.2,28.8,30.15,NNW,338,1.1,1.1,77,0.00,CLR,,0.00,WeatherDisplay:10.37,2013-01-29 01:12:00,
2013-01-28 20:15:00,35.2,28.8,30.15,NNW,338,1.1,1.1,77,0.00,CLR,,0.00,WeatherDisplay:10.37,2013-01-29 01:15:00,
2013-01-28 20:16:00,35.2,28.8,30.15,NNW,338,1.1,1.1,77,0.00,CLR,,0.00,WeatherDisplay:10.37,2013-01-29 01:16:00,
2013-01-28 20:17:00,35.2,28.8,30.15,NNW,338,1.1,1.1,77,0.00,CLR,,0.00,WeatherDisplay:10.37,2013-01-29 01:17:00,
2013-01-28 20:20:00,35.2,28.8,30.15,NNW,338,1.1,1.1,77,0.00,CLR,,0.00,WeatherDisplay:10.37,2013-01-29 01:20:00,
2013-01-28 20:21:00,35.2,28.8,30.15,NNW,338,1.1,1.1,77,0.00,CLR,,0.00,WeatherDisplay:10.37,2013-01-29 01:21:00,
2013-01-28 20:22:00,35.2,28.8,30.15,NNW,338,1.1,1.1,77,0.00,CLR,,0.00,WeatherDisplay:10.37,2013-01-29 01:22:00,
2013-01-28 20:23:00,35.2,28.8,30.15,NNW,338,1.1,1.1,77,0.00,CLR,,0.00,WeatherDisplay:10.37,2013-01-29 01:23:00,
2013-01-28 20:25:00,35.2,28.8,30.15,NNW,338,1.1,1.1,77,0.00,CLR,,0.00,WeatherDisplay:10.37,2013-01-29 01:25:00,
2013-01-28 20:26:00,35.2,28.8,30.15,NNW,338,1.1,1.1,77,0.00,CLR,,0.00,WeatherDisplay:10.37,2013-01-29 01:26:00,
2013-01-28 20:27:00,35.2,28.8,30.15,NNW,338,1.1,1.1,77,0.00,CLR,,0.00,WeatherDisplay:10.37,2013-01-29 01:27:00,
2013-01-28 20:28:00,35.2,28.8,30.15,NNW,338,1.1,1.1,77,0.00,CLR,,0.00,WeatherDisplay:10.37,2013-01-29 01:28:00,
2013-01-28 20:30:00,35.2,28.8,30.15,NNW,338,1.1,1.1,77,0.00,CLR,,0.00,WeatherDisplay:10.37,2013-01-29 01:30:00,
2013-01-28 20:31:00,35.2,28.8,30.13,WNW,292,1.1,1.1,77,0.00,CLR,,0.00,WeatherDisplay:10.37,2013-01-29 01:31:00,
2013-01-28 20:32:00,35.2,28.8,30.13,WNW,292,1.1,1.1,77,0.00,CLR,,0.00,WeatherDisplay:10.37,2013-01-29 01:32:00,
2013-01-28 20:33:00,35.2,28.8,30.13,WNW,292,1.1,1.1,77,0.00,CLR,,0.00,WeatherDisplay:10.37,2013-01-29 01:33:00,
2013-01-28 20:35:00,35.2,28.8,30.13,WNW,292,1.1,1.1,77,0.00,CLR,,0.00,WeatherDisplay:10.37,2013-01-29 01:35:00,
2013-01-28 20:36:00,35.2,28.8,30.13,WNW,292,1.1,1.1,77,0.00,CLR,,0.00,WeatherDisplay:10.37,2013-01-29 01:36:00,
2013-01-28 20:37:00,35.2,28.8,30.13,WNW,292,1.1,1.1,77,0.00,CLR,,0.00,WeatherDisplay:10.37,2013-01-29 01:37:00,
2013-01-28 20:38:00,35.2,28.8,30.13,WNW,292,1.1,1.1,77,0.00,CLR,,0.00,WeatherDisplay:10.37,2013-01-29 01:38:00,
2013-01-28 20:40:00,35.2,28.8,30.13,WNW,292,1.1,1.1,77,0.00,CLR,,0.00,WeatherDisplay:10.37,2013-01-29 01:40:00,
2013-01-28 20:41:00,35.2,28.8,30.13,WNW,292,1.1,1.1,77,0.00,CLR,,0.00,WeatherDisplay:10.37,2013-01-29 01:41:00,
2013-01-28 20:42:00,35.2,28.8,30.13,WNW,292,1.1,1.1,77,0.00,CLR,,0.00,WeatherDisplay:10.37,2013-01-29 01:42:00,
2013-01-28 20:43:00,35.2,28.8,30.13,WNW,292,1.1,1.1,77,0.00,CLR,,0.00,WeatherDisplay:10.37,2013-01-29 01:43:00,
2013-01-28 20:45:00,35.2,28.8,30.13,WNW,292,1.1,1.1,77,0.00,CLR,,0.00,WeatherDisplay:10.37,2013-01-29 01:45:00,
2013-01-28 20:46:00,35.2,28.8,30.13,WNW,292,1.1,1.1,77,0.00,CLR,,0.00,WeatherDisplay:10.37,2013-01-29 01:46:00,
2013-01-28 20:47:00,35.2,28.8,30.13,WNW,292,1.1,1.1,77,0.00,CLR,,0.00,WeatherDisplay:10.37,2013-01-29 01:47:00,
2013-01-28 20:48:00,35.2,28.8,30.13,WNW,292,1.1,1.1,77,0.00,CLR,,0.00,WeatherDisplay:10.37,2013-01-29 01:48:00,
2013-01-28 20:50:00,35.2,28.8,30.13,WNW,292,1.1,1.1,77,0.00,CLR,,0.00,WeatherDisplay:10.37,2013-01-29 01:50:00,
2013-01-28 20:51:00,35.2,28.8,30.13,WNW,292,1.1,1.1,77,0.00,CLR,,0.00,WeatherDisplay:10.37,2013-01-29 01:51:00,
2013-01-28 20:52:00,35.2,28.8,30.13,WNW,292,1.1,1.1,77,0.00,CLR,,0.00,WeatherDisplay:10.37,2013-01-29 01:52:00,
2013-01-28 20:54:00,35.2,28.8,30.13,WNW,292,1.1,1.1,77,0.00,CLR,,0.00,WeatherDisplay:10.37,2013-01-29 01:54:00,
2013-01-28 20:56:00,35.2,28.8,30.13,WNW,292,1.1,1.1,77,0.00,CLR,,0.00,WeatherDisplay:10.37,2013-01-29 01:56:00,
2013-01-28 20:57:00,35.2,28.8,30.13,WNW,292,1.1,1.1,77,0.00,CLR,,0.00,WeatherDisplay:10.37,2013-01-29 01:57:00,
2013-01-28 20:59:00,35.2,28.8,30.13,WNW,292,1.1,1.1,77,0.00,CLR,,0.00,WeatherDisplay:10.37,2013-01-29 01:59:00,
2013-01-28 21:01:00,35.2,29.1,30.11,North,0,1.1,1.1,78,0.00,CLR,,0.00,WeatherDisplay:10.37,2013-01-29 02:01:00,
2013-01-28 21:02:00,35.2,29.1,30.11,North,0,0.0,0.2,78,0.00,CLR,,0.00,WeatherDisplay:10.37,2013-01-29 02:02:00,
2013-01-28 21:03:00,35.2,29.1,30.11,North,0,0.0,0.2,78,0.00,CLR,,0.00,WeatherDisplay:10.37,2013-01-29 02:03:00,
2013-01-28 21:04:00,35.2,29.1,30.11,North,0,0.0,0.2,78,0.00,CLR,,0.00,WeatherDisplay:10.37,2013-01-29 02:04:00,
2013-01-28 21:06:00,35.2,29.1,30.11,North,0,0.0,0.2,78,0.00,CLR,,0.00,WeatherDisplay:10.37,2013-01-29 02:06:00,
2013-01-28 21:07:00,35.2,29.1,30.11,North,0,0.0,0.2,78,0.00,CLR,,0.00,WeatherDisplay:10.37,2013-01-29 02:07:00,
2013-01-28 21:08:00,35.2,29.1,30.11,North,0,0.0,0.2,78,0.00,CLR,,0.00,WeatherDisplay:10.37,2013-01-29 02:08:00,
2013-01-28 21:09:00,35.2,29.1,30.11,North,0,0.0,0.2,78,0.00,CLR,,0.00,WeatherDisplay:10.37,2013-01-29 02:09:00,
2013-01-28 21:11:00,35.2,29.1,30.11,North,0,0.0,0.2,78,0.00,CLR,,0.00,WeatherDisplay:10.37,2013-01-29 02:11:00,
2013-01-28 21:12:00,35.2,29.1,30.11,North,0,0.0,0.2,78,0.00,CLR,,0.00,WeatherDisplay:10.37,2013-01-29 02:12:00,
2013-01-28 21:13:00,35.2,29.1,30.11,North,0,0.0,0.2,78,0.00,CLR,,0.00,WeatherDisplay:10.37,2013-01-29 02:13:00,
2013-01-28 21:14:00,35.2,29.1,30.11,North,0,0.0,0.2,78,0.00,CLR,,0.00,WeatherDisplay:10.37,2013-01-29 02:14:00,
2013-01-28 21:16:00,35.2,29.1,30.11,North,0,0.0,0.2,78,0.00,CLR,,0.00,WeatherDisplay:10.37,2013-01-29 02:16:00,
2013-01-28 21:18:00,35.2,29.1,30.11,North,0,0.0,0.2,78,0.00,CLR,,0.00,WeatherDisplay:10.37,2013-01-29 02:18:00,
2013-01-28 21:19:00,35.2,29.1,30.11,North,0,0.0,0.2,78,0.00,CLR,,0.00,WeatherDisplay:10.37,2013-01-29 02:19:00,
2013-01-28 21:21:00,35.2,29.1,30.11,North,0,0.0,0.2,78,0.00,CLR,,0.00,WeatherDisplay:10.37,2013-01-29 02:21:00,
2013-01-28 21:23:00,35.2,29.1,30.11,North,0,0.0,0.2,78,0.00,CLR,,0.00,WeatherDisplay:10.37,2013-01-29 02:23:00,
2013-01-28 21:24:00,35.2,29.1,30.11,North,0,0.0,0.2,78,0.00,CLR,,0.00,WeatherDisplay:10.37,2013-01-29 02:24:00,
2013-01-28 21:26:00,35.2,29.1,30.11,North,0,0.0,0.2,78,0.00,CLR,,0.00,WeatherDisplay:10.37,2013-01-29 02:26:00,
2013-01-28 21:28:00,35.2,29.1,30.11,North,0,0.0,0.2,78,0.00,CLR,,0.00,WeatherDisplay:10.37,2013-01-29 02:28:00,
2013-01-28 21:29:00,35.2,29.1,30.11,North,0,0.0,0.2,78,0.00,CLR,,0.00,WeatherDisplay:10.37,2013-01-29 02:29:00,
2013-01-28 21:31:00,35.4,29.2,30.10,NNW,338,0.0,0.2,78,0.00,CLR,,0.00,WeatherDisplay:10.37,2013-01-29 02:31:00,
2013-01-28 21:33:00,35.4,29.2,30.10,NNW,338,0.0,0.2,78,0.00,CLR,,0.00,WeatherDisplay:10.37,2013-01-29 02:33:00,
2013-01-28 21:34:00,35.4,29.2,30.10,NNW,338,0.0,0.2,78,0.00,CLR,,0.00,WeatherDisplay:10.37,2013-01-29 02:34:00,
2013-01-28 21:35:00,35.4,29.2,30.10,NNW,338,0.0,0.2,78,0.00,CLR,,0.00,WeatherDisplay:10.37,2013-01-29 02:35:00,
2013-01-28 21:36:00,35.4,29.2,30.10,NNW,338,0.0,0.2,78,0.00,CLR,,0.00,WeatherDisplay:10.37,2013-01-29 02:36:00,
2013-01-28 21:38:00,35.4,29.2,30.10,NNW,338,0.0,0.2,78,0.00,CLR,,0.00,WeatherDisplay:10.37,2013-01-29 02:38:00,
2013-01-28 21:39:00,35.4,29.2,30.10,NNW,338,0.0,0.2,78,0.00,CLR,,0.00,WeatherDisplay:10.37,2013-01-29 02:39:00,
2013-01-28 21:40:00,35.4,29.2,30.10,NNW,338,0.0,0.2,78,0.00,CLR,,0.00,WeatherDisplay:10.37,2013-01-29 02:40:00,
2013-01-28 21:41:00,35.4,29.2,30.10,NNW,338,0.0,0.2,78,0.00,CLR,,0.00,WeatherDisplay:10.37,2013-01-29 02:41:00,
2013-01-28 21:43:00,35.4,29.2,30.10,NNW,338,0.0,0.2,78,0.00,CLR,,0.00,WeatherDisplay:10.37,2013-01-29 02:43:00,
2013-01-28 21:44:00,35.4,29.2,30.10,NNW,338,0.0,0.2,78,0.00,CLR,,0.00,WeatherDisplay:10.37,2013-01-29 02:44:00,
2013-01-28 21:45:00,35.4,29.2,30.10,NNW,338,0.0,0.2,78,0.00,CLR,,0.00,WeatherDisplay:10.37,2013-01-29 02:45:00,
2013-01-28 21:46:00,35.4,29.2,30.10,NNW,338,0.0,0.2,78,0.00,CLR,,0.00,WeatherDisplay:10.37,2013-01-29 02:46:00,
2013-01-28 21:48:00,35.4,29.2,30.10,NNW,338,0.0,0.2,78,0.00,CLR,,0.00,WeatherDisplay:10.37,2013-01-29 02:48:00,
2013-01-28 21:49:00,35.4,29.2,30.10,NNW,338,0.0,0.2,78,0.00,CLR,,0.00,WeatherDisplay:10.37,2013-01-29 02:49:00,
2013-01-28 21:50:00,35.4,29.2,30.10,NNW,338,0.0,0.2,78,0.00,CLR,,0.00,WeatherDisplay:10.37,2013-01-29 02:50:00,
2013-01-28 21:51:00,35.4,29.2,30.10,NNW,338,0.0,0.2,78,0.00,CLR,,0.00,WeatherDisplay:10.37,2013-01-29 02:51:00,
2013-01-28 21:54:00,35.4,29.2,30.10,NNW,338,0.0,0.2,78,0.00,CLR,,0.00,WeatherDisplay:10.37,2013-01-29 02:54:00,
2013-01-28 21:55:00,35.4,29.2,30.10,NNW,338,0.0,0.2,78,0.00,CLR,,0.00,WeatherDisplay:10.37,2013-01-29 02:55:00,
2013-01-28 21:56:00,35.4,29.2,30.10,NNW,338,0.0,0.2,78,0.00,CLR,,0.00,WeatherDisplay:10.37,2013-01-29 02:56:00,
2013-01-28 21:59:00,35.4,29.2,30.10,NNW,338,0.0,0.2,78,0.00,CLR,,0.00,WeatherDisplay:10.37,2013-01-29 02:59:00,
2013-01-28 22:01:00,35.4,29.2,30.10,NNW,338,0.0,0.2,78,0.00,CLR,,0.00,WeatherDisplay:10.37,2013-01-29 03:01:00,
2013-01-28 22:04:00,35.4,29.2,30.10,NNW,338,0.0,0.2,78,0.00,CLR,,0.00,WeatherDisplay:10.37,2013-01-29 03:04:00,
2013-01-28 22:06:00,35.4,29.2,30.10,NNW,338,0.0,0.2,78,0.00,CLR,,0.00,WeatherDisplay:10.37,2013-01-29 03:06:00,
2013-01-28 22:07:00,35.4,29.2,30.10,NNW,338,0.0,0.2,78,0.00,CLR,,0.00,WeatherDisplay:10.37,2013-01-29 03:07:00,
2013-01-28 22:09:00,35.4,29.2,30.10,NNW,338,0.0,0.2,78,0.00,CLR,,0.00,WeatherDisplay:10.37,2013-01-29 03:09:00,
2013-01-28 22:11:00,35.4,29.2,30.10,NNW,338,0.0,0.2,78,0.00,CLR,,0.00,WeatherDisplay:10.37,2013-01-29 03:11:00,
2013-01-28 22:12:00,35.4,29.2,30.10,NNW,338,0.0,0.2,78,0.00,CLR,,0.00,WeatherDisplay:10.37,2013-01-29 03:12:00,
2013-01-28 22:14:00,35.4,29.2,30.10,NNW,338,0.2,0.2,78,0.00,CLR,,0.00,WeatherDisplay:10.37,2013-01-29 03:14:00,
2013-01-28 22:15:00,35.4,29.2,30.10,NNW,338,0.0,0.2,78,0.00,CLR,,0.00,WeatherDisplay:10.37,2013-01-29 03:15:00,
2013-01-28 22:16:00,35.4,29.2,30.10,NNW,338,0.0,0.2,78,0.00,CLR,,0.00,WeatherDisplay:10.37,2013-01-29 03:16:00,
2013-01-28 22:17:00,35.4,29.2,30.10,NNW,338,0.0,0.2,78,0.00,CLR,,0.00,WeatherDisplay:10.37,2013-01-29 03:17:00,
2013-01-28 22:19:00,35.4,29.2,30.10,NNW,338,0.0,0.2,78,0.00,CLR,,0.00,WeatherDisplay:10.37,2013-01-29 03:19:00,
2013-01-28 22:20:00,35.4,29.2,30.10,NNW,338,0.0,0.2,78,0.00,CLR,,0.00,WeatherDisplay:10.37,2013-01-29 03:20:00,
2013-01-28 22:21:00,35.4,29.2,30.10,NNW,338,0.0,0.2,78,0.00,CLR,,0.00,WeatherDisplay:10.37,2013-01-29 03:21:00,
2013-01-28 22:22:00,35.4,29.2,30.10,NNW,338,0.0,0.2,78,0.00,CLR,,0.00,WeatherDisplay:10.37,2013-01-29 03:22:00,
2013-01-28 22:24:00,35.4,29.2,30.10,NNW,338,0.0,0.2,78,0.00,CLR,,0.00,WeatherDisplay:10.37,2013-01-29 03:24:00,
2013-01-28 22:25:00,35.4,29.2,30.10,NNW,338,0.0,0.2,78,0.00,CLR,,0.00,WeatherDisplay:10.37,2013-01-29 03:25:00,
2013-01-28 22:26:00,35.4,29.2,30.10,NNW,338,0.0,0.2,78,0.00,CLR,,0.00,WeatherDisplay:10.37,2013-01-29 03:26:00,
2013-01-28 22:28:00,35.4,29.2,30.10,NNW,338,0.0,0.2,78,0.00,CLR,,0.00,WeatherDisplay:10.37,2013-01-29 03:28:00,
2013-01-28 22:30:00,35.4,29.2,30.10,NNW,338,0.0,0.2,78,0.00,CLR,,0.00,WeatherDisplay:10.37,2013-01-29 03:30:00,
2013-01-28 22:31:00,35.4,29.2,30.08,NW,315,0.0,0.5,78,0.00,CLR,,0.00,WeatherDisplay:10.37,2013-01-29 03:31:00,
2013-01-28 22:33:00,35.4,29.2,30.08,NW,315,0.0,0.5,78,0.00,CLR,,0.00,WeatherDisplay:10.37,2013-01-29 03:33:00,
2013-01-28 22:35:00,35.4,29.2,30.08,NW,315,0.0,0.5,78,0.00,CLR,,0.00,WeatherDisplay:10.37,2013-01-29 03:35:00,
2013-01-28 22:36:00,35.4,29.2,30.08,NW,315,0.0,0.5,78,0.00,CLR,,0.00,WeatherDisplay:10.37,2013-01-29 03:36:00,
2013-01-28 22:38:00,35.4,29.2,30.08,NW,315,0.0,0.5,78,0.00,CLR,,0.00,WeatherDisplay:10.37,2013-01-29 03:38:00,
2013-01-28 22:40:00,35.4,29.2,30.08,NW,315,0.0,0.5,78,0.00,CLR,,0.00,WeatherDisplay:10.37,2013-01-29 03:40:00,
2013-01-28 22:41:00,35.4,29.2,30.08,NW,315,0.0,0.5,78,0.00,CLR,,0.00,WeatherDisplay:10.37,2013-01-29 03:41:00,
2013-01-28 22:42:00,35.4,29.2,30.08,NW,315,0.0,0.5,78,0.00,CLR,,0.00,WeatherDisplay:10.37,2013-01-29 03:42:00,
2013-01-28 22:43:00,35.4,29.2,30.08,NW,315,0.0,0.5,78,0.00,CLR,,0.00,WeatherDisplay:10.37,2013-01-29 03:43:00,
2013-01-28 22:45:00,35.4,29.2,30.08,NW,315,0.0,0.5,78,0.00,CLR,,0.00,WeatherDisplay:10.37,2013-01-29 03:45:00,
2013-01-28 22:46:00,35.4,29.2,30.08,NW,315,0.0,0.5,78,0.00,CLR,,0.00,WeatherDisplay:10.37,2013-01-29 03:46:00,
2013-01-28 22:47:00,35.4,29.2,30.08,NW,315,0.0,0.5,78,0.00,CLR,,0.00,WeatherDisplay:10.37,2013-01-29 03:47:00,
2013-01-28 22:48:00,35.4,29.2,30.08,NW,315,0.0,0.5,78,0.00,CLR,,0.00,WeatherDisplay:10.37,2013-01-29 03:48:00,
2013-01-28 22:51:00,35.4,29.2,30.08,NW,315,0.0,0.5,78,0.00,CLR,,0.00,WeatherDisplay:10.37,2013-01-29 03:51:00,
2013-01-28 22:52:00,35.4,29.2,30.08,NW,315,0.0,0.5,78,0.00,CLR,,0.00,WeatherDisplay:10.37,2013-01-29 03:52:00,
2013-01-28 22:53:00,35.4,29.2,30.08,NW,315,0.0,0.5,78,0.00,CLR,,0.00,WeatherDisplay:10.37,2013-01-29 03:53:00,
2013-01-28 22:56:00,35.4,29.2,30.08,NW,315,0.0,0.5,78,0.00,CLR,,0.00,WeatherDisplay:10.37,2013-01-29 03:56:00,
2013-01-28 22:57:00,35.4,29.2,30.08,NW,315,0.0,0.5,78,0.00,CLR,,0.00,WeatherDisplay:10.37,2013-01-29 03:57:00,
2013-01-28 22:59:00,35.4,29.2,30.08,NW,315,0.0,0.5,78,0.00,CLR,,0.00,WeatherDisplay:10.37,2013-01-29 03:59:00,
2013-01-28 23:01:00,35.2,29.1,30.09,NNW,338,0.0,0.5,78,0.00,CLR,,0.00,WeatherDisplay:10.37,2013-01-29 04:01:00,
2013-01-28 23:02:00,35.2,29.1,30.09,NNW,338,0.0,0.5,78,0.00,CLR,,0.00,WeatherDisplay:10.37,2013-01-29 04:02:00,
2013-01-28 23:04:00,35.2,29.1,30.09,NNW,338,0.0,0.5,78,0.00,CLR,,0.00,WeatherDisplay:10.37,2013-01-29 04:04:00,
2013-01-28 23:06:00,35.2,29.1,30.09,NNW,338,0.0,0.5,78,0.00,CLR,,0.00,WeatherDisplay:10.37,2013-01-29 04:06:00,
2013-01-28 23:07:00,35.2,29.1,30.09,NNW,338,0.0,0.5,78,0.00,CLR,,0.00,WeatherDisplay:10.37,2013-01-29 04:07:00,
2013-01-28 23:09:00,35.2,29.1,30.09,NNW,338,0.0,0.5,78,0.00,CLR,,0.00,WeatherDisplay:10.37,2013-01-29 04:09:00,
2013-01-28 23:11:00,35.2,29.1,30.09,NNW,338,0.0,0.5,78,0.00,CLR,,0.00,WeatherDisplay:10.37,2013-01-29 04:11:00,
2013-01-28 23:12:00,35.2,29.1,30.09,NNW,338,0.0,0.5,78,0.00,CLR,,0.00,WeatherDisplay:10.37,2013-01-29 04:12:00,
2013-01-28 23:14:00,35.2,29.1,30.09,NNW,338,0.0,0.5,78,0.00,CLR,,0.00,WeatherDisplay:10.37,2013-01-29 04:14:00,
2013-01-28 23:16:00,35.2,29.1,30.09,NNW,338,0.0,0.5,78,0.00,CLR,,0.00,WeatherDisplay:10.37,2013-01-29 04:16:00,
2013-01-28 23:17:00,35.2,29.1,30.09,NNW,338,0.0,0.5,78,0.00,CLR,,0.00,WeatherDisplay:10.37,2013-01-29 04:17:00,
2013-01-28 23:19:00,35.2,29.1,30.09,NNW,338,0.0,0.5,78,0.00,CLR,,0.00,WeatherDisplay:10.37,2013-01-29 04:19:00,
2013-01-28 23:21:00,35.2,29.1,30.09,NNW,338,0.0,0.5,78,0.00,CLR,,0.00,WeatherDisplay:10.37,2013-01-29 04:21:00,
2013-01-28 23:22:00,35.2,29.1,30.09,NNW,338,0.0,0.5,78,0.00,CLR,,0.00,WeatherDisplay:10.37,2013-01-29 04:22:00,
2013-01-28 23:24:00,35.2,29.1,30.09,NNW,338,0.0,0.5,78,0.00,CLR,,0.00,WeatherDisplay:10.37,2013-01-29 04:24:00,
2013-01-28 23:26:00,35.2,29.1,30.09,NNW,338,0.0,0.5,78,0.00,CLR,,0.00,WeatherDisplay:10.37,2013-01-29 04:26:00,
2013-01-28 23:27:00,35.2,29.1,30.09,NNW,338,0.0,0.5,78,0.00,CLR,,0.00,WeatherDisplay:10.37,2013-01-29 04:27:00,
2013-01-28 23:29:00,35.2,29.1,30.09,NNW,338,0.0,0.5,78,0.00,CLR,,0.00,WeatherDisplay:10.37,2013-01-29 04:29:00,
2013-01-28 23:31:00,35.2,29.4,30.07,NNW,338,0.0,0.0,79,0.00,CLR,,0.00,WeatherDisplay:10.37,2013-01-29 04:31:00,
2013-01-28 23:32:00,35.2,29.4,30.07,NNW,338,0.0,0.0,79,0.00,CLR,,0.00,WeatherDisplay:10.37,2013-01-29 04:32:00,
2013-01-28 23:33:00,35.2,29.4,30.07,NNW,338,0.0,0.0,79,0.00,CLR,,0.00,WeatherDisplay:10.37,2013-01-29 04:33:00,
2013-01-28 23:34:00,35.2,29.4,30.07,NNW,338,0.0,0.0,79,0.00,CLR,,0.00,WeatherDisplay:10.37,2013-01-29 04:34:00,
2013-01-28 23:36:00,35.2,29.4,30.07,NNW,338,0.0,0.0,79,0.00,CLR,,0.00,WeatherDisplay:10.37,2013-01-29 04:36:00,
2013-01-28 23:37:00,35.2,29.4,30.07,NNW,338,0.0,0.0,79,0.00,CLR,,0.00,WeatherDisplay:10.37,2013-01-29 04:37:00,
2013-01-28 23:38:00,35.2,29.4,30.07,NNW,338,0.0,0.0,79,0.00,CLR,,0.00,WeatherDisplay:10.37,2013-01-29 04:38:00,
2013-01-28 23:39:00,35.2,29.4,30.07,NNW,338,0.0,0.0,79,0.00,CLR,,0.00,WeatherDisplay:10.37,2013-01-29 04:39:00,
2013-01-28 23:41:00,35.2,29.4,30.07,NNW,338,0.0,0.0,79,0.00,CLR,,0.00,WeatherDisplay:10.37,2013-01-29 04:41:00,
2013-01-28 23:42:00,35.2,29.4,30.07,NNW,338,0.0,0.0,79,0.00,CLR,,0.00,WeatherDisplay:10.37,2013-01-29 04:42:00,
2013-01-28 23:43:00,35.2,29.4,30.07,NNW,338,0.0,0.0,79,0.00,CLR,,0.00,WeatherDisplay:10.37,2013-01-29 04:43:00,
2013-01-28 23:45:00,35.2,29.4,30.07,NNW,338,0.0,0.0,79,0.00,CLR,,0.00,WeatherDisplay:10.37,2013-01-29 04:45:00,
2013-01-28 23:46:00,35.2,29.4,30.07,NNW,338,0.0,0.0,79,0.00,CLR,,0.00,WeatherDisplay:10.37,2013-01-29 04:46:00,
2013-01-28 23:48:00,35.2,29.4,30.07,NNW,338,0.0,0.0,79,0.00,CLR,,0.00,WeatherDisplay:10.37,2013-01-29 04:48:00,
2013-01-28 23:50:00,35.2,29.4,30.07,NNW,338,0.0,0.0,79,0.00,CLR,,0.00,WeatherDisplay:10.37,2013-01-29 04:50:00,
2013-01-28 23:52:00,35.2,29.4,30.07,NNW,338,0.0,0.0,79,0.00,CLR,,0.00,WeatherDisplay:10.37,2013-01-29 04:52:00,
2013-01-28 23:53:00,35.2,29.4,30.07,NNW,338,0.0,0.0,79,0.00,CLR,,0.00,WeatherDisplay:10.37,2013-01-29 04:53:00,
2013-01-28 23:55:00,35.2,29.4,30.07,NNW,338,0.0,0.0,79,0.00,CLR,,0.00,WeatherDisplay:10.37,2013-01-29 04:55:00,
2013-01-28 23:57:00,35.2,29.4,30.07,NNW,338,0.0,0.0,79,0.00,CLR,,0.00,WeatherDisplay:10.37,2013-01-29 04:57:00,
2013-01-28 23:58:00,35.2,29.4,30.07,NNW,338,0.0,0.0,79,0.00,CLR,,0.00,WeatherDisplay:10.37,2013-01-29 04:58:00,